Wetterdaten: Dienstag, 07.01.2020
Datum Zeit Temp. Aussen Temp. o. S. Temp +5cm Feuchte Auss Luftdruck Regen Sonnenschein Regendauer Solar Windben Empfang
07.01.2020 00:00 4,2 C 4,4 C 3,3 C 89 % 1022,0 hPa 0,0 l/m 0 min 0 min 0 W/m 0,0 km/h (0 Bft) 95,74 %
07.01.2020 00:02 4,3 C 4,4 C 3,9 C 89 % 1022,1 hPa 0,0 l/m 0 min 0 min 0 W/m 0,0 km/h (0 Bft) 95,24 %
07.01.2020 00:04 4,3 C 4,4 C 3,9 C 89 % 1022,0 hPa 0,0 l/m 0 min 0 min 0 W/m 6,4 km/h (2 Bft) 95,74 %
07.01.2020 00:08 4,4 C 4,4 C 3,9 C 89 % 1022,2 hPa 0,0 l/m 0 min 0 min 0 W/m 3,2 km/h (1 Bft) 95,70 %
07.01.2020 00:10 4,4 C 4,4 C 3,9 C 89 % 1022,2 hPa 0,0 l/m 0 min 0 min 0 W/m 0,0 km/h (0 Bft) 97,87 %
07.01.2020 00:12 4,5 C 4,4 C 3,9 C 89 % 1022,3 hPa 0,0 l/m 0 min 0 min 0 W/m 0,0 km/h (0 Bft) 95,74 %
07.01.2020 00:14 4,6 C 4,4 C 3,9 C 88 % 1022,2 hPa 0,0 l/m 0 min 0 min 0 W/m 0,0 km/h (0 Bft) 93,62 %
07.01.2020 00:16 4,6 C 4,4 C 3,9 C 88 % 1022,3 hPa 0,0 l/m 0 min 0 min 0 W/m 9,7 km/h (2 Bft) 95,74 %
07.01.2020 00:18 4,6 C 4,4 C 3,9 C 88 % 1022,4 hPa 0,0 l/m 0 min 0 min 0 W/m 0,0 km/h (0 Bft) 95,65 %
07.01.2020 00:20 4,7 C 4,4 C 3,9 C 88 % 1022,5 hPa 0,0 l/m 0 min 0 min 0 W/m 0,0 km/h (0 Bft) 95,74 %
07.01.2020 00:22 4,7 C 4,4 C 3,9 C 88 % 1022,4 hPa 0,0 l/m 0 min 0 min 0 W/m 0,0 km/h (0 Bft) 95,74 %
07.01.2020 00:24 4,7 C 4,4 C 3,9 C 88 % 1022,3 hPa 0,0 l/m 0 min 0 min 0 W/m 3,2 km/h (1 Bft) 97,87 %
07.01.2020 00:26 4,8 C 4,4 C 3,9 C 88 % 1022,4 hPa 0,0 l/m 0 min 0 min 0 W/m 0,0 km/h (0 Bft) 97,87 %
07.01.2020 00:28 4,8 C 4,4 C 3,9 C 88 % 1022,5 hPa 0,0 l/m 0 min 0 min 0 W/m 0,0 km/h (0 Bft) 95,74 %
07.01.2020 00:30 4,8 C 4,4 C 3,9 C 88 % 1022,5 hPa 0,0 l/m 0 min 0 min 0 W/m 0,0 km/h (0 Bft) 97,83 %
07.01.2020 00:32 4,8 C 4,4 C 3,9 C 88 % 1022,4 hPa 0,0 l/m 0 min 0 min 0 W/m 0,0 km/h (0 Bft) 97,87 %
07.01.2020 00:34 4,8 C 4,4 C 3,9 C 88 % 1022,5 hPa 0,0 l/m 0 min 0 min 0 W/m 9,7 km/h (2 Bft) 97,87 %
07.01.2020 00:36 4,8 C 4,4 C 3,9 C 88 % 1022,5 hPa 0,0 l/m 0 min 0 min 0 W/m 0,0 km/h (0 Bft) 97,87 %
07.01.2020 00:38 4,9 C 4,4 C 3,9 C 88 % 1022,5 hPa 0,0 l/m 0 min 0 min 0 W/m 3,2 km/h (1 Bft) 95,74 %
07.01.2020 00:40 4,9 C 4,4 C 3,9 C 88 % 1022,5 hPa 0,0 l/m 0 min 0 min 0 W/m 0,0 km/h (0 Bft) 95,74 %
07.01.2020 00:42 4,9 C 4,4 C 3,9 C 88 % 1022,4 hPa 0,0 l/m 0 min 0 min 0 W/m 3,2 km/h (1 Bft) 95,74 %
07.01.2020 00:44 4,9 C 4,4 C 3,9 C 88 % 1022,4 hPa 0,0 l/m 0 min 0 min 0 W/m 0,0 km/h (0 Bft) 95,65 %
07.01.2020 00:46 4,9 C 4,4 C 3,9 C 88 % 1022,5 hPa 0,0 l/m 0 min 0 min 0 W/m 0,0 km/h (0 Bft) 95,74 %
07.01.2020 00:48 4,9 C 4,4 C 3,9 C 88 % 1022,5 hPa 0,0 l/m 0 min 0 min 0 W/m 0,0 km/h (0 Bft) 93,62 %
07.01.2020 00:50 5,0 C 4,4 C 3,9 C 88 % 1022,5 hPa 0,0 l/m 0 min 0 min 0 W/m 3,2 km/h (1 Bft) 93,62 %
07.01.2020 00:52 5,0 C 4,4 C 3,9 C 88 % 1022,5 hPa 0,0 l/m 0 min 0 min 0 W/m 3,2 km/h (1 Bft) 93,62 %
07.01.2020 00:54 5,0 C 4,4 C 3,9 C 88 % 1022,5 hPa 0,0 l/m 0 min 0 min 0 W/m 6,4 km/h (2 Bft) 95,65 %
07.01.2020 00:56 5,0 C 3,9 C 3,3 C 88 % 1022,5 hPa 0,0 l/m 0 min 0 min 0 W/m 3,2 km/h (1 Bft) 93,62 %
07.01.2020 00:58 5,0 C 3,9 C 3,3 C 89 % 1022,5 hPa 0,0 l/m 0 min 0 min 0 W/m 3,2 km/h (1 Bft) 95,74 %
07.01.2020 01:00 5,0 C 3,9 C 3,3 C 89 % 1022,4 hPa 0,0 l/m 0 min 0 min 0 W/m 3,2 km/h (1 Bft) 95,74 %
07.01.2020 01:02 5,0 C 3,9 C 3,3 C 89 % 1022,5 hPa 0,0 l/m 0 min 0 min 0 W/m 12,9 km/h (3 Bft) 95,74 %
07.01.2020 01:04 5,0 C 3,9 C 3,3 C 90 % 1022,5 hPa 0,0 l/m 0 min 2 min 0 W/m 0,0 km/h (0 Bft) 51,16 %
07.01.2020 01:06 5,0 C 3,9 C 3,3 C 90 % 1022,5 hPa 0,0 l/m 0 min 0 min 0 W/m 3,2 km/h (1 Bft) 95,65 %
07.01.2020 01:08 5,0 C 3,9 C 3,3 C 90 % 1022,4 hPa 0,0 l/m 0 min 0 min 0 W/m 12,9 km/h (3 Bft) 97,87 %
07.01.2020 01:10 5,0 C 3,9 C 3,3 C 90 % 1022,4 hPa 0,0 l/m 0 min 0 min 0 W/m 0,0 km/h (0 Bft) 95,74 %
07.01.2020 01:12 5,0 C 3,9 C 3,3 C 90 % 1022,4 hPa 0,0 l/m 0 min 0 min 0 W/m 6,4 km/h (2 Bft) 95,74 %
07.01.2020 01:14 4,9 C 3,9 C 3,3 C 90 % 1022,5 hPa 0,0 l/m 0 min 2 min 0 W/m 0,0 km/h (0 Bft) 97,87 %
07.01.2020 01:16 4,9 C 3,9 C 3,3 C 90 % 1022,5 hPa 0,0 l/m 0 min 0 min 0 W/m 3,2 km/h (1 Bft) 97,87 %
07.01.2020 01:18 4,9 C 3,9 C 3,3 C 90 % 1022,5 hPa 0,0 l/m 0 min 0 min 0 W/m 12,9 km/h (3 Bft) 97,83 %
07.01.2020 01:20 4,9 C 3,9 C 3,3 C 91 % 1022,6 hPa 0,0 l/m 0 min 0 min 0 W/m 0,0 km/h (0 Bft) 97,87 %
07.01.2020 01:22 4,9 C 3,9 C 3,3 C 91 % 1022,6 hPa 0,0 l/m 0 min 0 min 0 W/m 0,0 km/h (0 Bft) 95,74 %
07.01.2020 01:24 4,9 C 4,4 C 3,3 C 91 % 1022,6 hPa 0,0 l/m 0 min 0 min 0 W/m 3,2 km/h (1 Bft) 100,00 %
07.01.2020 01:26 4,9 C 4,4 C 3,3 C 91 % 1022,6 hPa 0,0 l/m 0 min 0 min 0 W/m 3,2 km/h (1 Bft) 97,87 %
07.01.2020 01:28 4,9 C 4,4 C 3,3 C 91 % 1022,6 hPa 0,0 l/m 0 min 0 min 0 W/m 0,0 km/h (0 Bft) 100,00 %
07.01.2020 01:30 4,9 C 4,4 C 3,3 C 91 % 1022,7 hPa 0,0 l/m 0 min 0 min 0 W/m 0,0 km/h (0 Bft) 100,00 %
07.01.2020 01:32 4,9 C 4,4 C 3,9 C 91 % 1022,8 hPa 0,0 l/m 0 min 0 min 0 W/m 0,0 km/h (0 Bft) 100,00 %
07.01.2020 01:34 4,9 C 4,4 C 3,9 C 91 % 1022,8 hPa 0,0 l/m 0 min 0 min 0 W/m 3,2 km/h (1 Bft) 97,87 %
07.01.2020 01:36 4,9 C 4,4 C 3,9 C 91 % 1022,8 hPa 0,0 l/m 0 min 0 min 0 W/m 9,7 km/h (2 Bft) 100,00 %
07.01.2020 01:38 4,9 C 3,9 C 3,3 C 91 % 1022,9 hPa 0,0 l/m 0 min 0 min 0 W/m 6,4 km/h (2 Bft) 100,00 %
07.01.2020 01:40 4,9 C 3,9 C 3,3 C 91 % 1022,9 hPa 0,0 l/m 0 min 0 min 0 W/m 0,0 km/h (0 Bft) 100,00 %
07.01.2020 01:42 4,9 C 3,9 C 3,3 C 91 % 1022,9 hPa 0,0 l/m 0 min 0 min 0 W/m 19,3 km/h (3 Bft) 100,00 %
07.01.2020 01:44 4,9 C 3,9 C 3,3 C 91 % 1022,9 hPa 0,0 l/m 0 min 0 min 0 W/m 3,2 km/h (1 Bft) 97,87 %
07.01.2020 01:46 4,9 C 3,3 C 3,3 C 92 % 1022,9 hPa 0,0 l/m 0 min 0 min 0 W/m 6,4 km/h (2 Bft) 100,00 %
07.01.2020 01:48 4,9 C 3,3 C 3,3 C 92 % 1022,9 hPa 0,0 l/m 0 min 0 min 0 W/m 0,0 km/h (0 Bft) 100,00 %
07.01.2020 01:50 4,9 C 3,3 C 3,3 C 92 % 1022,9 hPa 0,0 l/m 0 min 2 min 0 W/m 3,2 km/h (1 Bft) 100,00 %
07.01.2020 01:52 4,9 C 3,3 C 2,8 C 92 % 1022,9 hPa 0,0 l/m 0 min 0 min 0 W/m 3,2 km/h (1 Bft) 100,00 %
07.01.2020 01:54 4,9 C 3,3 C 2,8 C 92 % 1022,9 hPa 0,0 l/m 0 min 2 min 0 W/m 6,4 km/h (2 Bft) 100,00 %
07.01.2020 01:56 4,9 C 3,3 C 2,8 C 92 % 1023,0 hPa 0,0 l/m 0 min 0 min 0 W/m 0,0 km/h (0 Bft) 97,87 %
07.01.2020 01:58 4,9 C 3,3 C 2,8 C 93 % 1023,0 hPa 0,0 l/m 0 min 2 min 0 W/m 0,0 km/h (0 Bft) 100,00 %
07.01.2020 02:00 4,8 C 3,3 C 2,8 C 93 % 1023,0 hPa 0,0 l/m 0 min 2 min 0 W/m 0,0 km/h (0 Bft) 97,87 %
07.01.2020 02:02 4,8 C 3,3 C 2,8 C 93 % 1022,9 hPa 0,0 l/m 0 min 2 min 0 W/m 0,0 km/h (0 Bft) 97,87 %
07.01.2020 02:04 4,8 C 3,3 C 2,8 C 93 % 1023,0 hPa 0,0 l/m 0 min 2 min 0 W/m 0,0 km/h (0 Bft) 100,00 %
07.01.2020 02:06 4,8 C 3,3 C 2,8 C 93 % 1023,0 hPa 0,2 l/m 0 min 2 min 0 W/m 0,0 km/h (0 Bft) 100,00 %
07.01.2020 02:08 4,8 C 3,3 C 2,8 C 93 % 1023,1 hPa 0,0 l/m 0 min 2 min 0 W/m 0,0 km/h (0 Bft) 97,87 %
07.01.2020 02:10 4,8 C 3,3 C 2,8 C 93 % 1023,1 hPa 0,0 l/m 0 min 2 min 0 W/m 0,0 km/h (0 Bft) 97,87 %
07.01.2020 02:12 4,8 C 3,3 C 2,8 C 93 % 1023,1 hPa 0,2 l/m 0 min 2 min 0 W/m 0,0 km/h (0 Bft) 97,87 %
07.01.2020 02:14 4,8 C 3,3 C 2,8 C 94 % 1023,2 hPa 0,0 l/m 0 min 2 min 0 W/m 0,0 km/h (0 Bft) 100,00 %
07.01.2020 02:16 4,8 C 3,3 C 2,8 C 94 % 1023,2 hPa 0,0 l/m 0 min 2 min 0 W/m 9,7 km/h (2 Bft) 97,83 %
07.01.2020 02:18 4,7 C 3,3 C 2,8 C 94 % 1023,2 hPa 0,0 l/m 0 min 2 min 0 W/m 3,2 km/h (1 Bft) 97,87 %
07.01.2020 02:20 4,7 C 3,3 C 2,8 C 94 % 1023,2 hPa 0,0 l/m 0 min 2 min 0 W/m 0,0 km/h (0 Bft) 97,87 %
07.01.2020 02:22 4,7 C 3,3 C 2,8 C 94 % 1023,2 hPa 0,2 l/m 0 min 2 min 0 W/m 3,2 km/h (1 Bft) 97,87 %
07.01.2020 02:24 4,7 C 3,3 C 2,8 C 94 % 1023,2 hPa 0,2 l/m 0 min 2 min 0 W/m 3,2 km/h (1 Bft) 95,74 %
07.01.2020 02:26 4,7 C 3,3 C 3,3 C 94 % 1023,3 hPa 0,0 l/m 0 min 2 min 0 W/m 3,2 km/h (1 Bft) 97,83 %
07.01.2020 02:28 4,7 C 3,3 C 3,3 C 94 % 1023,2 hPa 0,2 l/m 0 min 2 min 0 W/m 6,4 km/h (2 Bft) 97,87 %
07.01.2020 02:30 4,7 C 3,3 C 3,3 C 94 % 1023,3 hPa 0,0 l/m 0 min 2 min 0 W/m 3,2 km/h (1 Bft) 97,87 %
07.01.2020 02:32 4,7 C 3,3 C 3,3 C 95 % 1023,3 hPa 0,2 l/m 0 min 2 min 0 W/m 3,2 km/h (1 Bft) 97,87 %
07.01.2020 02:34 4,7 C 3,3 C 3,3 C 95 % 1023,3 hPa 0,0 l/m 0 min 2 min 0 W/m 0,0 km/h (0 Bft) 95,74 %
07.01.2020 02:36 4,7 C 3,3 C 3,3 C 95 % 1023,3 hPa 0,0 l/m 0 min 0 min 0 W/m 0,0 km/h (0 Bft) 97,87 %
07.01.2020 02:38 4,7 C 3,3 C 3,3 C 95 % 1023,2 hPa 0,0 l/m 0 min 0 min 0 W/m 0,0 km/h (0 Bft) 97,87 %
07.01.2020 02:40 4,7 C 3,3 C 3,3 C 95 % 1023,3 hPa 0,0 l/m 0 min 0 min 0 W/m 3,2 km/h (1 Bft) 97,83 %
07.01.2020 02:42 4,7 C 3,9 C 3,3 C 95 % 1023,3 hPa 0,0 l/m 0 min 0 min 0 W/m 6,4 km/h (2 Bft) 95,74 %
07.01.2020 02:44 4,7 C 3,9 C 3,3 C 95 % 1023,4 hPa 0,0 l/m 0 min 0 min 0 W/m 3,2 km/h (1 Bft) 97,87 %
07.01.2020 02:46 4,7 C 3,9 C 3,3 C 95 % 1023,4 hPa 0,0 l/m 0 min 0 min 0 W/m 0,0 km/h (0 Bft) 95,74 %
07.01.2020 02:48 4,7 C 3,9 C 3,3 C 95 % 1023,4 hPa 0,0 l/m 0 min 0 min 0 W/m 0,0 km/h (0 Bft) 97,87 %
07.01.2020 02:50 4,7 C 3,9 C 3,3 C 95 % 1023,4 hPa 0,0 l/m 0 min 0 min 0 W/m 0,0 km/h (0 Bft) 95,65 %
07.01.2020 02:52 4,7 C 3,9 C 3,3 C 96 % 1023,4 hPa 0,0 l/m 0 min 0 min 0 W/m 0,0 km/h (0 Bft) 97,87 %
07.01.2020 02:54 4,7 C 3,9 C 3,3 C 96 % 1023,5 hPa 0,0 l/m 0 min 0 min 0 W/m 0,0 km/h (0 Bft) 97,87 %
07.01.2020 02:56 4,7 C 3,9 C 3,3 C 96 % 1023,5 hPa 0,0 l/m 0 min 0 min 0 W/m 3,2 km/h (1 Bft) 97,87 %
07.01.2020 02:58 4,7 C 3,9 C 3,3 C 96 % 1023,5 hPa 0,0 l/m 0 min 0 min 0 W/m 0,0 km/h (0 Bft) 97,87 %
07.01.2020 03:00 4,8 C 3,9 C 3,3 C 96 % 1023,5 hPa 0,0 l/m 0 min 0 min 0 W/m 0,0 km/h (0 Bft) 97,87 %
07.01.2020 03:02 4,8 C 3,9 C 3,3 C 96 % 1023,5 hPa 0,0 l/m 0 min 0 min 0 W/m 0,0 km/h (0 Bft) 100,00 %
07.01.2020 03:04 4,8 C 3,9 C 3,3 C 96 % 1023,6 hPa 0,0 l/m 0 min 0 min 0 W/m 3,2 km/h (1 Bft) 100,00 %
07.01.2020 03:06 4,8 C 3,9 C 3,3 C 96 % 1023,6 hPa 0,0 l/m 0 min 0 min 0 W/m 3,2 km/h (1 Bft) 97,87 %
07.01.2020 03:08 4,8 C 3,9 C 3,3 C 96 % 1023,6 hPa 0,0 l/m 0 min 0 min 0 W/m 6,4 km/h (2 Bft) 100,00 %
07.01.2020 03:10 4,8 C 3,9 C 3,3 C 96 % 1023,6 hPa 0,0 l/m 0 min 0 min 0 W/m 6,4 km/h (2 Bft) 97,87 %
07.01.2020 03:12 4,8 C 3,9 C 3,3 C 96 % 1023,5 hPa 0,0 l/m 0 min 0 min 0 W/m 3,2 km/h (1 Bft) 100,00 %
07.01.2020 03:14 4,8 C 3,9 C 3,3 C 96 % 1023,5 hPa 0,0 l/m 0 min 0 min 0 W/m 0,0 km/h (0 Bft) 100,00 %
07.01.2020 03:16 4,8 C 3,9 C 3,3 C 96 % 1023,6 hPa 0,0 l/m 0 min 2 min 0 W/m 0,0 km/h (0 Bft) 100,00 %
07.01.2020 03:18 4,8 C 3,9 C 3,3 C 96 % 1023,6 hPa 0,0 l/m 0 min 0 min 0 W/m 0,0 km/h (0 Bft) 97,87 %
07.01.2020 03:20 4,8 C 3,9 C 3,3 C 96 % 1023,6 hPa 0,0 l/m 0 min 0 min 0 W/m 3,2 km/h (1 Bft) 100,00 %
07.01.2020 03:22 4,9 C 3,9 C 3,3 C 96 % 1023,6 hPa 0,0 l/m 0 min 2 min 0 W/m 9,7 km/h (2 Bft) 100,00 %
07.01.2020 03:24 4,9 C 3,9 C 3,3 C 96 % 1023,6 hPa 0,0 l/m 0 min 2 min 0 W/m 3,2 km/h (1 Bft) 97,83 %
07.01.2020 03:26 4,9 C 3,9 C 3,3 C 96 % 1023,6 hPa 0,0 l/m 0 min 0 min 0 W/m 6,4 km/h (2 Bft) 97,87 %
07.01.2020 03:28 4,9 C 3,9 C 3,3 C 97 % 1023,6 hPa 0,0 l/m 0 min 0 min 0 W/m 3,2 km/h (1 Bft) 95,74 %
07.01.2020 03:30 4,9 C 3,9 C 3,3 C 97 % 1023,6 hPa 0,0 l/m 0 min 0 min 0 W/m 3,2 km/h (1 Bft) 97,87 %
07.01.2020 03:32 4,9 C 3,9 C 3,3 C 97 % 1023,6 hPa 0,0 l/m 0 min 0 min 0 W/m 6,4 km/h (2 Bft) 97,87 %
07.01.2020 03:34 5,0 C 3,9 C 3,3 C 97 % 1023,6 hPa 0,0 l/m 0 min 0 min 0 W/m 0,0 km/h (0 Bft) 97,87 %
07.01.2020 03:36 5,0 C 3,9 C 3,3 C 97 % 1023,6 hPa 0,0 l/m 0 min 0 min 0 W/m 0,0 km/h (0 Bft) 97,83 %
07.01.2020 03:38 5,0 C 3,9 C 3,3 C 97 % 1023,6 hPa 0,0 l/m 0 min 0 min 0 W/m 0,0 km/h (0 Bft) 97,87 %
07.01.2020 03:40 5,0 C 3,9 C 3,3 C 97 % 1023,6 hPa 0,0 l/m 0 min 0 min 0 W/m 0,0 km/h (0 Bft) 95,74 %
07.01.2020 03:42 5,0 C 4,4 C 3,9 C 97 % 1023,7 hPa 0,0 l/m 0 min 0 min 0 W/m 0,0 km/h (0 Bft) 97,87 %
07.01.2020 03:44 5,1 C 4,4 C 3,9 C 97 % 1023,7 hPa 0,0 l/m 0 min 0 min 0 W/m 3,2 km/h (1 Bft) 93,62 %
07.01.2020 03:46 5,1 C 4,4 C 3,9 C 97 % 1023,8 hPa 0,0 l/m 0 min 0 min 0 W/m 3,2 km/h (1 Bft) 93,62 %
07.01.2020 03:48 5,1 C 4,4 C 3,9 C 97 % 1023,7 hPa 0,0 l/m 0 min 0 min 0 W/m 3,2 km/h (1 Bft) 93,48 %
07.01.2020 03:50 5,1 C 4,4 C 3,9 C 97 % 1023,7 hPa 0,0 l/m 0 min 0 min 0 W/m 0,0 km/h (0 Bft) 93,62 %
07.01.2020 03:52 5,1 C 4,4 C 3,9 C 97 % 1023,7 hPa 0,0 l/m 0 min 0 min 0 W/m 0,0 km/h (0 Bft) 95,74 %
07.01.2020 03:54 5,1 C 4,4 C 3,9 C 97 % 1023,8 hPa 0,0 l/m 0 min 0 min 0 W/m 6,4 km/h (2 Bft) 93,62 %
07.01.2020 03:56 5,1 C 4,4 C 3,9 C 97 % 1023,8 hPa 0,0 l/m 0 min 0 min 0 W/m 3,2 km/h (1 Bft) 93,62 %
07.01.2020 03:58 5,1 C 4,4 C 3,9 C 97 % 1023,8 hPa 0,0 l/m 0 min 0 min 0 W/m 0,0 km/h (0 Bft) 95,74 %
07.01.2020 04:00 5,1 C 4,4 C 3,9 C 97 % 1023,9 hPa 0,0 l/m 0 min 0 min 0 W/m 3,2 km/h (1 Bft) 95,65 %
07.01.2020 04:05 5,2 C 4,4 C 3,9 C 97 % 1023,8 hPa 0,0 l/m 0 min 0 min 0 W/m 0,0 km/h (0 Bft) 95,45 %
07.01.2020 04:06 5,2 C 4,4 C 3,9 C 97 % 1023,8 hPa 0,0 l/m 0 min 0 min 0 W/m 6,4 km/h (2 Bft) 95,83 %
07.01.2020 04:08 5,2 C 4,4 C 3,9 C 98 % 1023,8 hPa 0,0 l/m 0 min 0 min 0 W/m 0,0 km/h (0 Bft) 97,87 %
07.01.2020 04:10 5,2 C 4,4 C 3,9 C 97 % 1023,7 hPa 0,0 l/m 0 min 0 min 0 W/m 0,0 km/h (0 Bft) 97,83 %
07.01.2020 04:12 5,2 C 4,4 C 3,9 C 97 % 1023,7 hPa 0,0 l/m 0 min 0 min 0 W/m 6,4 km/h (2 Bft) 97,87 %
07.01.2020 04:14 5,2 C 4,4 C 3,9 C 98 % 1023,8 hPa 0,0 l/m 0 min 0 min 0 W/m 6,4 km/h (2 Bft) 95,74 %
07.01.2020 04:16 5,2 C 4,4 C 3,9 C 98 % 1023,8 hPa 0,0 l/m 0 min 0 min 0 W/m 3,2 km/h (1 Bft) 95,74 %
07.01.2020 04:18 5,2 C 4,4 C 3,9 C 98 % 1023,8 hPa 0,0 l/m 0 min 0 min 0 W/m 0,0 km/h (0 Bft) 97,87 %
07.01.2020 04:20 5,3 C 4,4 C 3,9 C 98 % 1023,8 hPa 0,0 l/m 0 min 0 min 0 W/m 0,0 km/h (0 Bft) 95,74 %
07.01.2020 04:22 5,3 C 4,4 C 3,9 C 98 % 1023,7 hPa 0,0 l/m 0 min 0 min 0 W/m 16,1 km/h (3 Bft) 97,83 %
07.01.2020 04:24 5,3 C 4,4 C 3,9 C 98 % 1023,8 hPa 0,0 l/m 0 min 0 min 0 W/m 0,0 km/h (0 Bft) 97,87 %
07.01.2020 04:26 5,3 C 4,4 C 3,9 C 98 % 1023,8 hPa 0,0 l/m 0 min 0 min 0 W/m 3,2 km/h (1 Bft) 95,74 %
07.01.2020 04:28 5,3 C 4,4 C 3,9 C 98 % 1023,8 hPa 0,0 l/m 0 min 0 min 0 W/m 3,2 km/h (1 Bft) 95,74 %
07.01.2020 04:30 5,3 C 4,4 C 3,9 C 98 % 1023,8 hPa 0,0 l/m 0 min 0 min 0 W/m 3,2 km/h (1 Bft) 97,87 %
07.01.2020 04:32 5,3 C 4,4 C 3,9 C 98 % 1023,8 hPa 0,0 l/m 0 min 0 min 0 W/m 0,0 km/h (0 Bft) 100,00 %
07.01.2020 04:34 5,3 C 4,4 C 3,9 C 98 % 1023,8 hPa 0,0 l/m 0 min 0 min 0 W/m 6,4 km/h (2 Bft) 97,83 %
07.01.2020 04:36 5,3 C 4,4 C 3,9 C 98 % 1023,8 hPa 0,0 l/m 0 min 0 min 0 W/m 3,2 km/h (1 Bft) 97,87 %
07.01.2020 04:38 5,4 C 4,4 C 3,9 C 98 % 1023,8 hPa 0,0 l/m 0 min 0 min 0 W/m 3,2 km/h (1 Bft) 97,87 %
07.01.2020 04:40 5,4 C 4,4 C 3,9 C 98 % 1023,9 hPa 0,0 l/m 0 min 0 min 0 W/m 0,0 km/h (0 Bft) 97,87 %
07.01.2020 04:42 5,4 C 4,4 C 3,9 C 98 % 1023,8 hPa 0,0 l/m 0 min 0 min 0 W/m 3,2 km/h (1 Bft) 97,87 %
07.01.2020 04:44 5,4 C 4,4 C 3,9 C 98 % 1023,8 hPa 0,0 l/m 0 min 0 min 0 W/m 3,2 km/h (1 Bft) 95,74 %
07.01.2020 04:46 5,4 C 4,4 C 3,9 C 98 % 1023,8 hPa 0,0 l/m 0 min 0 min 0 W/m 0,0 km/h (0 Bft) 95,65 %
07.01.2020 04:48 5,4 C 4,4 C 3,9 C 98 % 1023,8 hPa 0,0 l/m 0 min 0 min 0 W/m 0,0 km/h (0 Bft) 97,87 %
07.01.2020 04:50 5,4 C 4,4 C 3,9 C 98 % 1023,9 hPa 0,0 l/m 0 min 0 min 0 W/m 6,4 km/h (2 Bft) 100,00 %
07.01.2020 04:52 5,4 C 4,4 C 3,9 C 98 % 1024,0 hPa 0,0 l/m 0 min 0 min 0 W/m 3,2 km/h (1 Bft) 100,00 %
07.01.2020 04:54 5,4 C 4,4 C 3,9 C 98 % 1024,0 hPa 0,0 l/m 0 min 0 min 0 W/m 0,0 km/h (0 Bft) 100,00 %
07.01.2020 04:56 5,5 C 5,0 C 3,9 C 98 % 1024,0 hPa 0,0 l/m 0 min 0 min 0 W/m 0,0 km/h (0 Bft) 95,74 %
07.01.2020 04:58 5,5 C 5,0 C 3,9 C 98 % 1024,0 hPa 0,0 l/m 0 min 0 min 0 W/m 3,2 km/h (1 Bft) 97,83 %
07.01.2020 05:00 5,5 C 5,0 C 4,4 C 98 % 1024,0 hPa 0,0 l/m 0 min 0 min 0 W/m 0,0 km/h (0 Bft) 97,87 %
07.01.2020 05:02 5,6 C 5,0 C 4,4 C 98 % 1024,1 hPa 0,0 l/m 0 min 0 min 0 W/m 0,0 km/h (0 Bft) 95,74 %
07.01.2020 05:04 5,6 C 5,0 C 4,4 C 98 % 1024,1 hPa 0,0 l/m 0 min 0 min 0 W/m 16,1 km/h (3 Bft) 97,87 %
07.01.2020 05:06 5,6 C 5,0 C 4,4 C 98 % 1024,1 hPa 0,0 l/m 0 min 0 min 0 W/m 0,0 km/h (0 Bft) 95,74 %
07.01.2020 05:08 5,6 C 5,0 C 4,4 C 98 % 1024,1 hPa 0,0 l/m 0 min 0 min 0 W/m 3,2 km/h (1 Bft) 95,74 %
07.01.2020 05:10 5,6 C 5,0 C 4,4 C 98 % 1024,2 hPa 0,0 l/m 0 min 0 min 0 W/m 0,0 km/h (0 Bft) 97,83 %
07.01.2020 05:12 5,6 C 5,0 C 4,4 C 98 % 1024,2 hPa 0,0 l/m 0 min 0 min 0 W/m 0,0 km/h (0 Bft) 95,74 %
07.01.2020 05:14 5,6 C 5,0 C 4,4 C 98 % 1024,2 hPa 0,0 l/m 0 min 0 min 0 W/m 0,0 km/h (0 Bft) 97,87 %
07.01.2020 05:16 5,6 C 5,0 C 4,4 C 98 % 1024,2 hPa 0,0 l/m 0 min 0 min 0 W/m 3,2 km/h (1 Bft) 97,87 %
07.01.2020 05:18 5,6 C 5,0 C 4,4 C 98 % 1024,3 hPa 0,0 l/m 0 min 0 min 0 W/m 3,2 km/h (1 Bft) 97,87 %
07.01.2020 05:20 5,6 C 5,0 C 4,4 C 98 % 1024,3 hPa 0,0 l/m 0 min 0 min 0 W/m 0,0 km/h (0 Bft) 95,65 %
07.01.2020 05:22 5,7 C 5,0 C 4,4 C 98 % 1024,3 hPa 0,0 l/m 0 min 0 min 0 W/m 6,4 km/h (2 Bft) 97,87 %
07.01.2020 05:24 5,7 C 5,0 C 4,4 C 98 % 1024,3 hPa 0,0 l/m 0 min 0 min 0 W/m 0,0 km/h (0 Bft) 97,87 %
07.01.2020 05:26 5,7 C 5,0 C 4,4 C 98 % 1024,4 hPa 0,0 l/m 0 min 0 min 0 W/m 0,0 km/h (0 Bft) 97,87 %
07.01.2020 05:28 5,7 C 5,0 C 4,4 C 98 % 1024,4 hPa 0,0 l/m 0 min 0 min 0 W/m 0,0 km/h (0 Bft) 95,74 %
07.01.2020 05:30 5,7 C 5,0 C 4,4 C 98 % 1024,4 hPa 0,0 l/m 0 min 0 min 0 W/m 0,0 km/h (0 Bft) 97,87 %
07.01.2020 05:32 5,7 C 5,0 C 4,4 C 98 % 1024,5 hPa 0,0 l/m 0 min 0 min 0 W/m 9,7 km/h (2 Bft) 97,83 %
07.01.2020 05:34 5,7 C 5,0 C 4,4 C 98 % 1024,5 hPa 0,0 l/m 0 min 0 min 0 W/m 3,2 km/h (1 Bft) 97,87 %
07.01.2020 05:36 5,7 C 5,0 C 4,4 C 98 % 1024,5 hPa 0,0 l/m 0 min 0 min 0 W/m 0,0 km/h (0 Bft) 97,87 %
07.01.2020 05:38 5,8 C 5,0 C 4,4 C 99 % 1024,6 hPa 0,0 l/m 0 min 0 min 0 W/m 3,2 km/h (1 Bft) 97,87 %
07.01.2020 05:40 5,8 C 5,0 C 4,4 C 99 % 1024,6 hPa 0,0 l/m 0 min 0 min 0 W/m 0,0 km/h (0 Bft) 97,87 %
07.01.2020 05:42 5,8 C 5,0 C 4,4 C 99 % 1024,7 hPa 0,0 l/m 0 min 0 min 0 W/m 0,0 km/h (0 Bft) 97,87 %
07.01.2020 05:44 5,8 C 5,0 C 4,4 C 99 % 1024,7 hPa 0,0 l/m 0 min 0 min 0 W/m 0,0 km/h (0 Bft) 97,83 %
07.01.2020 05:46 5,8 C 5,0 C 4,4 C 99 % 1024,8 hPa 0,0 l/m 0 min 0 min 0 W/m 0,0 km/h (0 Bft) 97,87 %
07.01.2020 05:48 5,8 C 5,0 C 4,4 C 99 % 1024,7 hPa 0,0 l/m 0 min 0 min 0 W/m 3,2 km/h (1 Bft) 97,87 %
07.01.2020 05:50 5,8 C 5,0 C 4,4 C 99 % 1024,7 hPa 0,0 l/m 0 min 0 min 0 W/m 0,0 km/h (0 Bft) 100,00 %
07.01.2020 05:52 5,8 C 5,0 C 4,4 C 99 % 1024,7 hPa 0,0 l/m 0 min 0 min 0 W/m 0,0 km/h (0 Bft) 100,00 %
07.01.2020 05:54 5,8 C 5,0 C 4,4 C 99 % 1024,7 hPa 0,0 l/m 0 min 0 min 0 W/m 0,0 km/h (0 Bft) 100,00 %
07.01.2020 05:56 5,8 C 5,0 C 4,4 C 99 % 1024,7 hPa 0,0 l/m 0 min 0 min 0 W/m 0,0 km/h (0 Bft) 97,83 %
07.01.2020 05:58 5,8 C 5,0 C 4,4 C 99 % 1024,7 hPa 0,0 l/m 0 min 0 min 0 W/m 3,2 km/h (1 Bft) 100,00 %
07.01.2020 06:00 5,8 C 5,0 C 4,4 C 99 % 1024,7 hPa 0,0 l/m 0 min 0 min 0 W/m 3,2 km/h (1 Bft) 100,00 %
07.01.2020 06:02 5,8 C 5,0 C 4,4 C 99 % 1024,6 hPa 0,0 l/m 0 min 0 min 0 W/m 0,0 km/h (0 Bft) 100,00 %
07.01.2020 06:04 5,9 C 5,0 C 4,4 C 99 % 1024,7 hPa 0,0 l/m 0 min 0 min 0 W/m 0,0 km/h (0 Bft) 97,87 %
07.01.2020 06:06 5,9 C 5,0 C 4,4 C 99 % 1024,7 hPa 0,0 l/m 0 min 0 min 0 W/m 0,0 km/h (0 Bft) 97,87 %
07.01.2020 06:08 5,9 C 5,0 C 4,4 C 99 % 1024,7 hPa 0,0 l/m 0 min 0 min 0 W/m 0,0 km/h (0 Bft) 97,87 %
07.01.2020 06:10 5,9 C 5,0 C 4,4 C 99 % 1024,7 hPa 0,0 l/m 0 min 0 min 0 W/m 0,0 km/h (0 Bft) 97,87 %
07.01.2020 06:12 5,9 C 5,0 C 4,4 C 99 % 1024,7 hPa 0,0 l/m 0 min 0 min 0 W/m 0,0 km/h (0 Bft) 97,87 %
07.01.2020 06:14 5,9 C 5,0 C 4,4 C 99 % 1024,8 hPa 0,0 l/m 0 min 0 min 0 W/m 3,2 km/h (1 Bft) 97,87 %
07.01.2020 06:16 5,9 C 5,0 C 4,4 C 99 % 1024,8 hPa 0,0 l/m 0 min 0 min 0 W/m 0,0 km/h (0 Bft) 95,74 %
07.01.2020 06:18 5,9 C 5,0 C 4,4 C 99 % 1024,8 hPa 0,0 l/m 0 min 0 min 0 W/m 0,0 km/h (0 Bft) 97,87 %
07.01.2020 06:20 5,9 C 5,0 C 4,4 C 99 % 1024,8 hPa 0,0 l/m 0 min 0 min 0 W/m 0,0 km/h (0 Bft) 97,83 %
07.01.2020 06:22 5,9 C 5,0 C 4,4 C 99 % 1024,9 hPa 0,0 l/m 0 min 0 min 0 W/m 0,0 km/h (0 Bft) 95,74 %
07.01.2020 06:24 5,9 C 5,0 C 4,4 C 99 % 1024,9 hPa 0,0 l/m 0 min 0 min 0 W/m 3,2 km/h (1 Bft) 95,74 %
07.01.2020 06:26 5,9 C 5,0 C 4,4 C 99 % 1024,9 hPa 0,0 l/m 0 min 0 min 0 W/m 0,0 km/h (0 Bft) 97,87 %
07.01.2020 06:28 5,9 C 5,0 C 4,4 C 99 % 1025,0 hPa 0,0 l/m 0 min 0 min 0 W/m 0,0 km/h (0 Bft) 97,87 %
07.01.2020 06:30 5,9 C 5,0 C 4,4 C 99 % 1025,0 hPa 0,0 l/m 0 min 0 min 0 W/m 0,0 km/h (0 Bft) 97,83 %
07.01.2020 06:32 5,9 C 5,0 C 4,4 C 99 % 1025,1 hPa 0,0 l/m 0 min 0 min 0 W/m 0,0 km/h (0 Bft) 95,74 %
07.01.2020 06:34 6,0 C 5,0 C 4,4 C 99 % 1025,1 hPa 0,0 l/m 0 min 0 min 0 W/m 0,0 km/h (0 Bft) 97,87 %
07.01.2020 06:36 6,0 C 5,0 C 4,4 C 99 % 1025,2 hPa 0,0 l/m 0 min 0 min 0 W/m 3,2 km/h (1 Bft) 97,87 %
07.01.2020 06:38 6,0 C 5,6 C 4,4 C 99 % 1025,2 hPa 0,0 l/m 0 min 0 min 0 W/m 0,0 km/h (0 Bft) 97,87 %
07.01.2020 06:40 6,0 C 5,6 C 4,4 C 99 % 1025,3 hPa 0,0 l/m 0 min 0 min 0 W/m 0,0 km/h (0 Bft) 95,74 %
07.01.2020 06:42 6,0 C 5,6 C 4,4 C 99 % 1025,3 hPa 0,0 l/m 0 min 0 min 0 W/m 0,0 km/h (0 Bft) 97,83 %
07.01.2020 06:44 6,1 C 5,6 C 4,4 C 99 % 1025,3 hPa 0,0 l/m 0 min 0 min 0 W/m 0,0 km/h (0 Bft) 97,87 %
07.01.2020 06:46 6,1 C 5,6 C 5,0 C 99 % 1025,4 hPa 0,0 l/m 0 min 0 min 0 W/m 0,0 km/h (0 Bft) 95,74 %
07.01.2020 06:48 6,1 C 5,6 C 5,0 C 99 % 1025,4 hPa 0,0 l/m 0 min 0 min 0 W/m 0,0 km/h (0 Bft) 95,74 %
07.01.2020 06:50 6,1 C 5,6 C 5,0 C 99 % 1025,5 hPa 0,0 l/m 0 min 0 min 0 W/m 0,0 km/h (0 Bft) 100,00 %
07.01.2020 06:52 6,1 C 5,6 C 5,0 C 99 % 1025,5 hPa 0,0 l/m 0 min 0 min 0 W/m 0,0 km/h (0 Bft) 100,00 %
07.01.2020 06:54 6,1 C 5,6 C 5,0 C 99 % 1025,5 hPa 0,0 l/m 0 min 0 min 0 W/m 0,0 km/h (0 Bft) 100,00 %
07.01.2020 06:56 6,1 C 5,6 C 5,0 C 99 % 1025,5 hPa 0,0 l/m 0 min 0 min 0 W/m 0,0 km/h (0 Bft) 97,87 %
07.01.2020 06:58 6,1 C 5,6 C 5,0 C 99 % 1025,6 hPa 0,0 l/m 0 min 0 min 0 W/m 3,2 km/h (1 Bft) 100,00 %
07.01.2020 07:00 6,1 C 5,6 C 5,0 C 99 % 1025,6 hPa 0,0 l/m 0 min 0 min 0 W/m 0,0 km/h (0 Bft) 100,00 %
07.01.2020 07:02 6,1 C 5,6 C 5,0 C 99 % 1025,6 hPa 0,0 l/m 0 min 0 min 0 W/m 3,2 km/h (1 Bft) 100,00 %
07.01.2020 07:04 6,1 C 5,6 C 5,0 C 99 % 1025,6 hPa 0,0 l/m 0 min 0 min 0 W/m 0,0 km/h (0 Bft) 100,00 %
07.01.2020 07:06 6,2 C 5,6 C 5,0 C 99 % 1025,7 hPa 0,0 l/m 0 min 0 min 0 W/m 0,0 km/h (0 Bft) 97,83 %
07.01.2020 07:08 6,2 C 5,6 C 5,0 C 99 % 1025,6 hPa 0,0 l/m 0 min 0 min 0 W/m 0,0 km/h (0 Bft) 100,00 %
07.01.2020 07:10 6,2 C 5,6 C 5,0 C 99 % 1025,7 hPa 0,0 l/m 0 min 0 min 0 W/m 0,0 km/h (0 Bft) 100,00 %
07.01.2020 07:12 6,2 C 5,6 C 5,0 C 99 % 1025,8 hPa 0,0 l/m 0 min 0 min 0 W/m 0,0 km/h (0 Bft) 100,00 %
07.01.2020 07:14 6,2 C 5,6 C 5,0 C 99 % 1025,8 hPa 0,0 l/m 0 min 0 min 0 W/m 0,0 km/h (0 Bft) 97,87 %
07.01.2020 07:16 6,2 C 5,6 C 5,0 C 99 % 1025,9 hPa 0,0 l/m 0 min 0 min 0 W/m 6,4 km/h (2 Bft) 93,62 %
07.01.2020 07:18 6,2 C 5,6 C 5,0 C 99 % 1025,9 hPa 0,0 l/m 0 min 0 min 0 W/m 3,2 km/h (1 Bft) 95,65 %
07.01.2020 07:20 6,2 C 5,6 C 5,0 C 99 % 1025,8 hPa 0,0 l/m 0 min 0 min 0 W/m 0,0 km/h (0 Bft) 97,87 %
07.01.2020 07:22 6,2 C 5,6 C 5,0 C 99 % 1025,9 hPa 0,0 l/m 0 min 0 min 0 W/m 0,0 km/h (0 Bft) 97,87 %
07.01.2020 07:24 6,2 C 5,6 C 5,0 C 99 % 1026,0 hPa 0,0 l/m 0 min 0 min 0 W/m 6,4 km/h (2 Bft) 97,87 %
07.01.2020 07:26 6,3 C 5,6 C 5,0 C 99 % 1025,9 hPa 0,0 l/m 0 min 0 min 0 W/m 3,2 km/h (1 Bft) 95,74 %
07.01.2020 07:28 6,3 C 5,6 C 5,0 C 99 % 1025,8 hPa 0,0 l/m 0 min 0 min 0 W/m 6,4 km/h (2 Bft) 97,83 %
07.01.2020 07:30 6,3 C 5,6 C 5,0 C 99 % 1025,9 hPa 0,0 l/m 0 min 0 min 0 W/m 0,0 km/h (0 Bft) 97,87 %
07.01.2020 07:32 6,3 C 5,6 C 5,0 C 99 % 1025,9 hPa 0,0 l/m 0 min 0 min 0 W/m 0,0 km/h (0 Bft) 95,74 %
07.01.2020 07:34 6,3 C 5,6 C 5,0 C 99 % 1026,0 hPa 0,0 l/m 0 min 0 min 0 W/m 0,0 km/h (0 Bft) 95,74 %
07.01.2020 07:36 6,3 C 5,6 C 5,0 C 99 % 1026,0 hPa 0,0 l/m 0 min 0 min 0 W/m 0,0 km/h (0 Bft) 95,74 %
07.01.2020 07:38 6,3 C 5,6 C 5,0 C 99 % 1026,1 hPa 0,0 l/m 0 min 0 min 0 W/m 0,0 km/h (0 Bft) 97,87 %
07.01.2020 07:40 6,3 C 5,6 C 5,0 C 99 % 1026,1 hPa 0,0 l/m 0 min 0 min 0 W/m 3,2 km/h (1 Bft) 97,83 %
07.01.2020 07:42 6,3 C 5,6 C 5,0 C 99 % 1026,1 hPa 0,0 l/m 0 min 0 min 0 W/m 0,0 km/h (0 Bft) 95,74 %
07.01.2020 07:44 6,3 C 5,6 C 5,0 C 99 % 1026,2 hPa 0,0 l/m 0 min 0 min 0 W/m 0,0 km/h (0 Bft) 91,49 %
07.01.2020 07:46 6,3 C 5,6 C 5,0 C 99 % 1026,2 hPa 0,0 l/m 0 min 0 min 0 W/m 0,0 km/h (0 Bft) 95,74 %
07.01.2020 07:48 6,3 C 5,6 C 5,0 C 99 % 1026,1 hPa 0,0 l/m 0 min 0 min 0 W/m 0,0 km/h (0 Bft) 95,74 %
07.01.2020 07:50 6,3 C 5,6 C 5,0 C 99 % 1026,2 hPa 0,0 l/m 0 min 0 min 0 W/m 0,0 km/h (0 Bft) 95,74 %
07.01.2020 07:52 6,3 C 5,6 C 5,0 C 99 % 1026,2 hPa 0,0 l/m 0 min 0 min 0 W/m 3,2 km/h (1 Bft) 95,65 %
07.01.2020 07:54 6,3 C 5,6 C 5,0 C 99 % 1026,3 hPa 0,0 l/m 0 min 0 min 0 W/m 0,0 km/h (0 Bft) 93,62 %
07.01.2020 07:56 6,4 C 5,6 C 5,0 C 99 % 1026,4 hPa 0,0 l/m 0 min 0 min 0 W/m 0,0 km/h (0 Bft) 93,62 %
07.01.2020 07:58 6,4 C 5,6 C 5,0 C 99 % 1026,3 hPa 0,0 l/m 0 min 0 min 0 W/m 0,0 km/h (0 Bft) 95,74 %
07.01.2020 08:00 6,4 C 5,6 C 5,0 C 99 % 1026,3 hPa 0,0 l/m 0 min 0 min 0 W/m 3,2 km/h (1 Bft) 95,74 %
07.01.2020 08:02 6,4 C 5,6 C 5,0 C 99 % 1026,4 hPa 0,0 l/m 0 min 0 min 0 W/m 22,5 km/h (4 Bft) 91,49 %
07.01.2020 08:04 6,4 C 5,6 C 5,0 C 99 % 1026,4 hPa 0,0 l/m 0 min 0 min 0 W/m 0,0 km/h (0 Bft) 95,65 %
07.01.2020 08:06 6,4 C 5,6 C 5,0 C 99 % 1026,4 hPa 0,0 l/m 0 min 0 min 0 W/m 0,0 km/h (0 Bft) 95,74 %
07.01.2020 08:08 6,4 C 5,6 C 5,0 C 99 % 1026,5 hPa 0,0 l/m 0 min 0 min 0 W/m 0,0 km/h (0 Bft) 95,74 %
07.01.2020 08:10 6,4 C 5,6 C 5,0 C 99 % 1026,6 hPa 0,0 l/m 0 min 0 min 0 W/m 12,9 km/h (3 Bft) 95,74 %
07.01.2020 08:12 6,4 C 5,6 C 5,0 C 99 % 1026,6 hPa 0,0 l/m 0 min 0 min 0 W/m 3,2 km/h (1 Bft) 95,74 %
07.01.2020 08:14 6,4 C 5,6 C 5,0 C 99 % 1026,6 hPa 0,0 l/m 0 min 0 min 0 W/m 19,3 km/h (3 Bft) 93,62 %
07.01.2020 08:16 6,4 C 5,6 C 5,0 C 99 % 1026,5 hPa 0,0 l/m 0 min 0 min 0 W/m 0,0 km/h (0 Bft) 97,83 %
07.01.2020 08:18 6,4 C 5,6 C 5,0 C 99 % 1026,6 hPa 0,0 l/m 0 min 0 min 0 W/m 0,0 km/h (0 Bft) 97,87 %
07.01.2020 08:20 6,4 C 5,6 C 5,0 C 99 % 1026,7 hPa 0,0 l/m 0 min 0 min 0 W/m 0,0 km/h (0 Bft) 95,74 %
07.01.2020 08:22 6,4 C 5,6 C 5,0 C 99 % 1026,7 hPa 0,0 l/m 0 min 0 min 0 W/m 0,0 km/h (0 Bft) 97,87 %
07.01.2020 08:24 6,4 C 5,6 C 5,0 C 99 % 1026,7 hPa 0,0 l/m 0 min 0 min 0 W/m 3,2 km/h (1 Bft) 97,87 %
07.01.2020 08:26 6,4 C 5,6 C 5,0 C 99 % 1026,8 hPa 0,0 l/m 0 min 0 min 0 W/m 6,4 km/h (2 Bft) 97,83 %
07.01.2020 08:28 6,4 C 5,6 C 5,0 C 99 % 1026,8 hPa 0,0 l/m 0 min 0 min 0 W/m 0,0 km/h (0 Bft) 97,87 %
07.01.2020 08:30 6,4 C 5,6 C 5,0 C 99 % 1026,8 hPa 0,0 l/m 0 min 0 min 0 W/m 3,2 km/h (1 Bft) 95,74 %
07.01.2020 08:32 6,4 C 5,6 C 5,0 C 99 % 1026,8 hPa 0,0 l/m 0 min 0 min 0 W/m 3,2 km/h (1 Bft) 95,74 %
07.01.2020 08:34 6,4 C 5,6 C 5,0 C 99 % 1026,8 hPa 0,0 l/m 0 min 0 min 0 W/m 3,2 km/h (1 Bft) 100,00 %
07.01.2020 08:36 6,4 C 5,6 C 5,0 C 99 % 1026,8 hPa 0,0 l/m 0 min 0 min 0 W/m 3,2 km/h (1 Bft) 100,00 %
07.01.2020 08:38 6,4 C 5,6 C 5,0 C 99 % 1026,9 hPa 0,0 l/m 0 min 0 min 0 W/m 0,0 km/h (0 Bft) 97,83 %
07.01.2020 08:40 6,4 C 5,6 C 5,0 C 99 % 1026,9 hPa 0,0 l/m 0 min 0 min 0 W/m 0,0 km/h (0 Bft) 100,00 %
07.01.2020 08:42 6,4 C 5,6 C 5,0 C 99 % 1026,9 hPa 0,0 l/m 0 min 0 min 3 W/m 3,2 km/h (1 Bft) 97,87 %
07.01.2020 08:44 6,4 C 5,6 C 4,4 C 99 % 1026,9 hPa 0,0 l/m 0 min 0 min 5 W/m 3,2 km/h (1 Bft) 95,74 %
07.01.2020 08:46 6,3 C 5,0 C 4,4 C 99 % 1026,9 hPa 0,0 l/m 0 min 0 min 6 W/m 0,0 km/h (0 Bft) 97,87 %
07.01.2020 08:48 6,3 C 5,0 C 4,4 C 99 % 1026,9 hPa 0,0 l/m 0 min 0 min 7 W/m 0,0 km/h (0 Bft) 95,74 %
07.01.2020 08:50 6,3 C 5,0 C 4,4 C 99 % 1026,8 hPa 0,0 l/m 0 min 0 min 8 W/m 0,0 km/h (0 Bft) 95,65 %
07.01.2020 08:52 6,3 C 5,6 C 4,4 C 99 % 1026,9 hPa 0,0 l/m 0 min 0 min 9 W/m 0,0 km/h (0 Bft) 97,87 %
07.01.2020 08:54 6,2 C 5,6 C 4,4 C 99 % 1026,9 hPa 0,0 l/m 0 min 0 min 9 W/m 0,0 km/h (0 Bft) 97,87 %
07.01.2020 08:56 6,2 C 5,6 C 4,4 C 99 % 1026,9 hPa 0,0 l/m 0 min 0 min 9 W/m 3,2 km/h (1 Bft) 95,74 %
07.01.2020 08:58 6,2 C 5,6 C 5,0 C 99 % 1027,0 hPa 0,0 l/m 0 min 0 min 11 W/m 0,0 km/h (0 Bft) 95,74 %
07.01.2020 09:00 6,2 C 5,6 C 5,0 C 99 % 1027,0 hPa 0,0 l/m 0 min 0 min 9 W/m 0,0 km/h (0 Bft) 97,87 %
07.01.2020 09:02 6,2 C 5,6 C 5,0 C 99 % 1027,0 hPa 0,0 l/m 0 min 0 min 11 W/m 3,2 km/h (1 Bft) 97,83 %
07.01.2020 09:04 6,2 C 5,6 C 5,0 C 99 % 1027,1 hPa 0,0 l/m 0 min 0 min 11 W/m 0,0 km/h (0 Bft) 97,87 %
07.01.2020 09:06 6,2 C 5,6 C 5,0 C 99 % 1027,1 hPa 0,0 l/m 0 min 0 min 12 W/m 6,4 km/h (2 Bft) 95,74 %
07.01.2020 09:08 6,2 C 5,6 C 5,0 C 99 % 1027,2 hPa 0,0 l/m 0 min 0 min 12 W/m 3,2 km/h (1 Bft) 93,62 %
07.01.2020 09:10 6,2 C 5,6 C 5,0 C 99 % 1027,3 hPa 0,0 l/m 0 min 0 min 12 W/m 0,0 km/h (0 Bft) 97,87 %
07.01.2020 09:12 6,2 C 5,6 C 5,0 C 99 % 1027,2 hPa 0,0 l/m 0 min 0 min 13 W/m 0,0 km/h (0 Bft) 95,65 %
07.01.2020 09:14 6,3 C 5,6 C 5,0 C 99 % 1027,3 hPa 0,0 l/m 0 min 0 min 17 W/m 0,0 km/h (0 Bft) 95,74 %
07.01.2020 09:16 6,3 C 5,6 C 5,0 C 99 % 1027,3 hPa 0,0 l/m 0 min 0 min 18 W/m 0,0 km/h (0 Bft) 95,74 %
07.01.2020 09:18 6,3 C 5,6 C 5,0 C 99 % 1027,3 hPa 0,0 l/m 0 min 0 min 16 W/m 0,0 km/h (0 Bft) 97,87 %
07.01.2020 09:20 6,3 C 5,6 C 5,0 C 99 % 1027,4 hPa 0,0 l/m 0 min 0 min 16 W/m 0,0 km/h (0 Bft) 97,87 %
07.01.2020 09:22 6,3 C 5,6 C 5,0 C 99 % 1027,4 hPa 0,0 l/m 0 min 0 min 18 W/m 0,0 km/h (0 Bft) 97,87 %
07.01.2020 09:24 6,3 C 5,6 C 5,0 C 99 % 1027,4 hPa 0,0 l/m 0 min 0 min 19 W/m 0,0 km/h (0 Bft) 97,83 %
07.01.2020 09:26 6,3 C 5,6 C 5,0 C 99 % 1027,5 hPa 0,0 l/m 0 min 0 min 21 W/m 0,0 km/h (0 Bft) 95,74 %
07.01.2020 09:28 6,3 C 6,1 C 5,0 C 99 % 1027,5 hPa 0,0 l/m 0 min 0 min 22 W/m 0,0 km/h (0 Bft) 97,87 %
07.01.2020 09:30 6,3 C 6,1 C 5,0 C 99 % 1027,5 hPa 0,0 l/m 0 min 0 min 21 W/m 3,2 km/h (1 Bft) 95,74 %
07.01.2020 09:32 6,3 C 6,1 C 5,0 C 99 % 1027,5 hPa 0,0 l/m 0 min 0 min 20 W/m 0,0 km/h (0 Bft) 100,00 %
07.01.2020 09:34 6,3 C 6,1 C 5,0 C 99 % 1027,5 hPa 0,0 l/m 0 min 0 min 21 W/m 0,0 km/h (0 Bft) 100,00 %
07.01.2020 09:36 6,3 C 6,1 C 5,0 C 99 % 1027,6 hPa 0,0 l/m 0 min 0 min 23 W/m 3,2 km/h (1 Bft) 63,04 %
07.01.2020 09:38 6,4 C 6,1 C 5,0 C 99 % 1027,5 hPa 0,0 l/m 0 min 0 min 25 W/m 3,2 km/h (1 Bft) 91,30 %
07.01.2020 09:40 6,4 C 6,1 C 5,0 C 99 % 1027,6 hPa 0,0 l/m 0 min 0 min 25 W/m 3,2 km/h (1 Bft) 100,00 %
07.01.2020 09:42 6,4 C 6,1 C 5,0 C 99 % 1027,7 hPa 0,0 l/m 0 min 0 min 23 W/m 0,0 km/h (0 Bft) 100,00 %
07.01.2020 09:44 6,4 C 6,1 C 5,0 C 99 % 1027,7 hPa 0,0 l/m 0 min 0 min 21 W/m 3,2 km/h (1 Bft) 100,00 %
07.01.2020 09:46 6,4 C 6,1 C 5,0 C 99 % 1027,7 hPa 0,0 l/m 0 min 0 min 23 W/m 0,0 km/h (0 Bft) 100,00 %
07.01.2020 09:48 6,4 C 6,1 C 5,6 C 99 % 1027,7 hPa 0,0 l/m 0 min 0 min 25 W/m 6,4 km/h (2 Bft) 100,00 %
07.01.2020 09:50 6,4 C 6,1 C 5,6 C 99 % 1027,7 hPa 0,0 l/m 0 min 0 min 26 W/m 0,0 km/h (0 Bft) 100,00 %
07.01.2020 09:52 6,4 C 6,1 C 5,6 C 99 % 1027,6 hPa 0,0 l/m 0 min 0 min 25 W/m 3,2 km/h (1 Bft) 100,00 %
07.01.2020 09:54 6,5 C 6,1 C 5,6 C 99 % 1027,5 hPa 0,0 l/m 0 min 0 min 33 W/m 3,2 km/h (1 Bft) 100,00 %
07.01.2020 09:56 6,5 C 6,1 C 5,6 C 99 % 1027,5 hPa 0,0 l/m 0 min 0 min 44 W/m 0,0 km/h (0 Bft) 100,00 %
07.01.2020 09:58 6,5 C 6,1 C 5,6 C 99 % 1027,5 hPa 0,0 l/m 0 min 0 min 40 W/m 0,0 km/h (0 Bft) 100,00 %
07.01.2020 10:00 6,5 C 6,1 C 5,6 C 99 % 1027,6 hPa 0,0 l/m 0 min 0 min 38 W/m 0,0 km/h (0 Bft) 100,00 %
07.01.2020 10:02 6,5 C 6,1 C 5,6 C 99 % 1027,7 hPa 0,0 l/m 0 min 0 min 32 W/m 0,0 km/h (0 Bft) 95,74 %
07.01.2020 10:04 6,5 C 6,1 C 5,6 C 99 % 1027,8 hPa 0,0 l/m 0 min 0 min 26 W/m 0,0 km/h (0 Bft) 100,00 %
07.01.2020 10:06 6,5 C 6,1 C 5,6 C 99 % 1027,7 hPa 0,0 l/m 0 min 0 min 27 W/m 0,0 km/h (0 Bft) 100,00 %
07.01.2020 10:08 6,5 C 6,1 C 5,6 C 99 % 1027,7 hPa 0,0 l/m 0 min 0 min 34 W/m 0,0 km/h (0 Bft) 100,00 %
07.01.2020 10:10 6,5 C 6,1 C 5,6 C 99 % 1027,7 hPa 0,0 l/m 0 min 0 min 39 W/m 0,0 km/h (0 Bft) 100,00 %
07.01.2020 10:12 6,5 C 6,7 C 5,6 C 99 % 1027,7 hPa 0,0 l/m 0 min 0 min 44 W/m 0,0 km/h (0 Bft) 100,00 %
07.01.2020 10:14 6,5 C 6,7 C 5,6 C 99 % 1027,8 hPa 0,0 l/m 0 min 0 min 43 W/m 0,0 km/h (0 Bft) 100,00 %
07.01.2020 10:16 6,5 C 6,7 C 5,6 C 99 % 1027,9 hPa 0,0 l/m 0 min 0 min 35 W/m 0,0 km/h (0 Bft) 100,00 %
07.01.2020 10:18 6,6 C 6,7 C 5,6 C 99 % 1027,9 hPa 0,0 l/m 0 min 0 min 29 W/m 0,0 km/h (0 Bft) 97,87 %
07.01.2020 10:20 6,6 C 6,7 C 5,6 C 99 % 1027,9 hPa 0,0 l/m 0 min 0 min 30 W/m 0,0 km/h (0 Bft) 95,65 %
07.01.2020 10:22 6,6 C 6,7 C 5,6 C 99 % 1027,9 hPa 0,0 l/m 0 min 0 min 36 W/m 0,0 km/h (0 Bft) 100,00 %
07.01.2020 10:24 6,6 C 6,7 C 5,6 C 99 % 1027,9 hPa 0,0 l/m 0 min 0 min 43 W/m 0,0 km/h (0 Bft) 100,00 %
07.01.2020 10:26 6,6 C 6,7 C 5,6 C 99 % 1027,8 hPa 0,0 l/m 0 min 0 min 47 W/m 3,2 km/h (1 Bft) 100,00 %
07.01.2020 10:28 6,6 C 6,7 C 5,6 C 99 % 1027,8 hPa 0,0 l/m 0 min 0 min 49 W/m 0,0 km/h (0 Bft) 97,87 %
07.01.2020 10:30 6,6 C 6,7 C 5,6 C 99 % 1027,7 hPa 0,0 l/m 0 min 0 min 51 W/m 0,0 km/h (0 Bft) 97,87 %
07.01.2020 10:32 6,6 C 6,7 C 6,1 C 99 % 1027,7 hPa 0,0 l/m 0 min 0 min 78 W/m 0,0 km/h (0 Bft) 97,83 %
07.01.2020 10:34 6,7 C 6,7 C 6,1 C 99 % 1027,7 hPa 0,0 l/m 0 min 0 min 81 W/m 3,2 km/h (1 Bft) 97,87 %
07.01.2020 10:36 6,7 C 6,7 C 6,1 C 99 % 1027,7 hPa 0,0 l/m 0 min 0 min 68 W/m 0,0 km/h (0 Bft) 95,74 %
07.01.2020 10:38 6,7 C 6,7 C 6,1 C 99 % 1027,7 hPa 0,0 l/m 0 min 0 min 75 W/m 3,2 km/h (1 Bft) 97,87 %
07.01.2020 10:40 6,7 C 7,2 C 6,1 C 99 % 1027,8 hPa 0,0 l/m 0 min 0 min 82 W/m 0,0 km/h (0 Bft) 95,74 %
07.01.2020 10:42 6,7 C 7,2 C 6,1 C 99 % 1027,8 hPa 0,0 l/m 0 min 0 min 86 W/m 3,2 km/h (1 Bft) 95,65 %
07.01.2020 10:44 6,8 C 7,2 C 6,1 C 99 % 1027,8 hPa 0,0 l/m 0 min 0 min 85 W/m 3,2 km/h (1 Bft) 95,74 %
07.01.2020 10:46 6,8 C 7,2 C 6,1 C 99 % 1027,8 hPa 0,0 l/m 0 min 0 min 98 W/m 6,4 km/h (2 Bft) 95,74 %
07.01.2020 10:48 6,8 C 7,2 C 6,1 C 99 % 1027,9 hPa 0,0 l/m 0 min 0 min 82 W/m 3,2 km/h (1 Bft) 95,74 %
07.01.2020 10:50 6,9 C 7,2 C 6,1 C 99 % 1027,9 hPa 0,0 l/m 0 min 0 min 78 W/m 0,0 km/h (0 Bft) 95,74 %
07.01.2020 10:52 6,9 C 7,2 C 6,1 C 99 % 1028,1 hPa 0,0 l/m 0 min 0 min 70 W/m 3,2 km/h (1 Bft) 95,74 %
07.01.2020 10:54 6,9 C 7,2 C 6,7 C 99 % 1028,1 hPa 0,0 l/m 0 min 0 min 83 W/m 0,0 km/h (0 Bft) 95,65 %
07.01.2020 10:56 6,9 C 7,2 C 6,7 C 99 % 1028,1 hPa 0,0 l/m 0 min 0 min 86 W/m 0,0 km/h (0 Bft) 93,62 %
07.01.2020 10:58 6,9 C 7,2 C 6,7 C 99 % 1028,1 hPa 0,0 l/m 0 min 0 min 71 W/m 0,0 km/h (0 Bft) 95,74 %
07.01.2020 11:00 7,0 C 7,2 C 6,7 C 99 % 1028,1 hPa 0,0 l/m 0 min 0 min 60 W/m 0,0 km/h (0 Bft) 91,49 %
07.01.2020 11:02 7,0 C 7,2 C 6,1 C 99 % 1028,1 hPa 0,0 l/m 0 min 0 min 53 W/m 0,0 km/h (0 Bft) 95,74 %
07.01.2020 11:04 7,1 C 7,2 C 6,1 C 99 % 1028,0 hPa 0,0 l/m 0 min 0 min 77 W/m 0,0 km/h (0 Bft) 95,74 %
07.01.2020 11:06 7,1 C 7,2 C 6,7 C 99 % 1028,1 hPa 0,0 l/m 0 min 0 min 83 W/m 6,4 km/h (2 Bft) 95,65 %
07.01.2020 11:08 7,1 C 7,2 C 6,7 C 99 % 1028,0 hPa 0,0 l/m 0 min 0 min 79 W/m 0,0 km/h (0 Bft) 95,74 %
07.01.2020 11:10 7,1 C 7,2 C 6,7 C 99 % 1028,2 hPa 0,0 l/m 0 min 0 min 74 W/m 3,2 km/h (1 Bft) 95,74 %
07.01.2020 11:12 7,1 C 7,2 C 6,7 C 99 % 1028,2 hPa 0,0 l/m 0 min 0 min 73 W/m 0,0 km/h (0 Bft) 95,74 %
07.01.2020 11:14 7,1 C 7,2 C 6,7 C 99 % 1028,1 hPa 0,0 l/m 0 min 0 min 100 W/m 3,2 km/h (1 Bft) 95,74 %
07.01.2020 11:16 7,1 C 7,8 C 6,7 C 99 % 1028,1 hPa 0,0 l/m 0 min 0 min 103 W/m 12,9 km/h (3 Bft) 93,62 %
07.01.2020 11:18 7,2 C 7,2 C 6,7 C 99 % 1028,2 hPa 0,0 l/m 0 min 0 min 92 W/m 12,9 km/h (3 Bft) 95,65 %
07.01.2020 11:20 7,2 C 7,2 C 6,7 C 99 % 1028,2 hPa 0,0 l/m 0 min 0 min 71 W/m 3,2 km/h (1 Bft) 93,62 %
07.01.2020 11:22 7,2 C 7,2 C 6,7 C 99 % 1028,2 hPa 0,0 l/m 0 min 0 min 68 W/m 12,9 km/h (3 Bft) 93,62 %
07.01.2020 11:24 7,2 C 7,2 C 6,7 C 99 % 1028,2 hPa 0,0 l/m 0 min 0 min 58 W/m 16,1 km/h (3 Bft) 95,74 %
07.01.2020 11:26 7,2 C 7,2 C 6,7 C 99 % 1028,2 hPa 0,0 l/m 0 min 0 min 69 W/m 3,2 km/h (1 Bft) 95,74 %
07.01.2020 11:28 7,2 C 7,2 C 6,7 C 99 % 1028,2 hPa 0,0 l/m 0 min 0 min 73 W/m 3,2 km/h (1 Bft) 95,74 %
07.01.2020 11:30 7,2 C 7,2 C 6,7 C 99 % 1028,2 hPa 0,0 l/m 0 min 0 min 69 W/m 3,2 km/h (1 Bft) 93,48 %
07.01.2020 11:32 7,2 C 7,2 C 6,7 C 99 % 1028,2 hPa 0,0 l/m 0 min 0 min 62 W/m 29,0 km/h (5 Bft) 93,62 %
07.01.2020 11:34 7,2 C 7,2 C 6,7 C 99 % 1028,2 hPa 0,0 l/m 0 min 0 min 62 W/m 29,0 km/h (5 Bft) 93,62 %
07.01.2020 11:36 7,2 C 7,2 C 6,7 C 99 % 1028,2 hPa 0,0 l/m 0 min 0 min 77 W/m 19,3 km/h (3 Bft) 97,87 %
07.01.2020 11:38 7,2 C 7,2 C 6,7 C 99 % 1028,2 hPa 0,0 l/m 0 min 0 min 78 W/m 19,3 km/h (3 Bft) 97,87 %
07.01.2020 11:40 7,3 C 7,2 C 6,7 C 99 % 1028,2 hPa 0,0 l/m 0 min 0 min 79 W/m 6,4 km/h (2 Bft) 97,87 %
07.01.2020 11:42 7,3 C 7,2 C 6,7 C 99 % 1028,2 hPa 0,0 l/m 0 min 0 min 66 W/m 6,4 km/h (2 Bft) 97,83 %
07.01.2020 11:44 7,3 C 7,2 C 6,7 C 99 % 1028,2 hPa 0,0 l/m 0 min 0 min 72 W/m 12,9 km/h (3 Bft) 95,74 %
07.01.2020 11:46 7,3 C 7,2 C 6,7 C 99 % 1028,2 hPa 0,0 l/m 0 min 0 min 68 W/m 6,4 km/h (2 Bft) 97,87 %
07.01.2020 11:48 7,3 C 7,2 C 6,7 C 99 % 1028,3 hPa 0,0 l/m 0 min 0 min 68 W/m 16,1 km/h (3 Bft) 97,87 %
07.01.2020 11:50 7,3 C 7,2 C 6,7 C 99 % 1028,3 hPa 0,0 l/m 0 min 0 min 67 W/m 3,2 km/h (1 Bft) 97,87 %
07.01.2020 11:52 7,3 C 7,2 C 6,7 C 99 % 1028,2 hPa 0,0 l/m 0 min 0 min 66 W/m 3,2 km/h (1 Bft) 95,65 %
07.01.2020 11:54 7,3 C 7,8 C 6,7 C 99 % 1028,2 hPa 0,0 l/m 0 min 0 min 70 W/m 0,0 km/h (0 Bft) 95,74 %
07.01.2020 11:56 7,3 C 7,2 C 6,7 C 98 % 1028,3 hPa 0,0 l/m 0 min 0 min 47 W/m 0,0 km/h (0 Bft) 97,87 %
07.01.2020 11:58 7,4 C 7,2 C 6,7 C 98 % 1028,2 hPa 0,0 l/m 0 min 0 min 36 W/m 0,0 km/h (0 Bft) 97,87 %
07.01.2020 12:00 7,4 C 7,2 C 6,7 C 98 % 1028,2 hPa 0,0 l/m 0 min 0 min 55 W/m 0,0 km/h (0 Bft) 97,87 %
07.01.2020 12:02 7,4 C 7,2 C 6,7 C 98 % 1028,2 hPa 0,0 l/m 0 min 0 min 80 W/m 6,4 km/h (2 Bft) 97,87 %
07.01.2020 12:04 7,4 C 7,8 C 6,7 C 98 % 1028,1 hPa 0,0 l/m 0 min 0 min 90 W/m 0,0 km/h (0 Bft) 100,00 %
07.01.2020 12:06 7,4 C 7,8 C 6,7 C 98 % 1028,1 hPa 0,0 l/m 0 min 0 min 99 W/m 12,9 km/h (3 Bft) 100,00 %
07.01.2020 12:08 7,4 C 7,8 C 7,2 C 98 % 1028,1 hPa 0,0 l/m 0 min 0 min 120 W/m 12,9 km/h (3 Bft) 100,00 %
07.01.2020 12:10 7,4 C 7,8 C 7,2 C 98 % 1028,1 hPa 0,0 l/m 0 min 0 min 118 W/m 16,1 km/h (3 Bft) 97,87 %
07.01.2020 12:12 7,4 C 7,8 C 7,2 C 98 % 1028,1 hPa 0,0 l/m 0 min 0 min 126 W/m 0,0 km/h (0 Bft) 100,00 %
07.01.2020 12:14 7,5 C 7,8 C 7,2 C 98 % 1028,1 hPa 0,0 l/m 0 min 0 min 107 W/m 19,3 km/h (3 Bft) 100,00 %
07.01.2020 12:16 7,5 C 7,8 C 7,2 C 98 % 1028,1 hPa 0,0 l/m 0 min 0 min 77 W/m 3,2 km/h (1 Bft) 100,00 %
07.01.2020 12:18 7,6 C 7,8 C 7,2 C 98 % 1028,1 hPa 0,0 l/m 0 min 0 min 105 W/m 0,0 km/h (0 Bft) 100,00 %
07.01.2020 12:20 7,6 C 7,8 C 7,2 C 98 % 1028,1 hPa 0,0 l/m 0 min 0 min 102 W/m 0,0 km/h (0 Bft) 97,87 %
07.01.2020 12:22 7,6 C 7,8 C 7,2 C 98 % 1028,1 hPa 0,0 l/m 0 min 0 min 74 W/m 3,2 km/h (1 Bft) 100,00 %
07.01.2020 12:24 7,6 C 7,8 C 7,2 C 98 % 1028,2 hPa 0,0 l/m 0 min 0 min 68 W/m 12,9 km/h (3 Bft) 95,74 %
07.01.2020 12:26 7,6 C 7,8 C 7,2 C 98 % 1028,1 hPa 0,0 l/m 0 min 0 min 72 W/m 19,3 km/h (3 Bft) 100,00 %
07.01.2020 12:28 7,6 C 7,8 C 7,2 C 98 % 1028,0 hPa 0,0 l/m 0 min 0 min 78 W/m 0,0 km/h (0 Bft) 100,00 %
07.01.2020 12:30 7,6 C 7,8 C 7,2 C 97 % 1027,9 hPa 0,0 l/m 0 min 0 min 96 W/m 3,2 km/h (1 Bft) 100,00 %
07.01.2020 12:32 7,7 C 7,8 C 7,2 C 97 % 1027,9 hPa 0,0 l/m 0 min 0 min 89 W/m 3,2 km/h (1 Bft) 100,00 %
07.01.2020 12:34 7,7 C 7,8 C 7,2 C 97 % 1028,0 hPa 0,0 l/m 0 min 0 min 84 W/m 6,4 km/h (2 Bft) 97,87 %
07.01.2020 12:36 7,7 C 7,8 C 7,2 C 97 % 1028,1 hPa 0,0 l/m 0 min 0 min 65 W/m 3,2 km/h (1 Bft) 100,00 %
07.01.2020 12:38 7,7 C 7,8 C 7,2 C 97 % 1028,1 hPa 0,0 l/m 0 min 0 min 56 W/m 0,0 km/h (0 Bft) 100,00 %
07.01.2020 12:40 7,7 C 7,8 C 7,2 C 97 % 1028,1 hPa 0,0 l/m 0 min 0 min 73 W/m 0,0 km/h (0 Bft) 100,00 %
07.01.2020 12:42 7,7 C 7,8 C 7,2 C 97 % 1028,0 hPa 0,0 l/m 0 min 0 min 80 W/m 0,0 km/h (0 Bft) 100,00 %
07.01.2020 12:44 7,8 C 7,8 C 7,2 C 97 % 1027,9 hPa 0,0 l/m 0 min 0 min 89 W/m 9,7 km/h (2 Bft) 100,00 %
07.01.2020 12:46 7,8 C 7,8 C 7,2 C 97 % 1027,9 hPa 0,0 l/m 0 min 0 min 98 W/m 0,0 km/h (0 Bft) 100,00 %
07.01.2020 12:48 7,8 C 7,8 C 7,2 C 97 % 1027,9 hPa 0,0 l/m 0 min 0 min 76 W/m 6,4 km/h (2 Bft) 100,00 %
07.01.2020 12:50 7,8 C 7,8 C 7,2 C 96 % 1028,0 hPa 0,0 l/m 0 min 0 min 62 W/m 0,0 km/h (0 Bft) 100,00 %
07.01.2020 12:52 7,8 C 7,8 C 7,2 C 96 % 1028,0 hPa 0,0 l/m 0 min 0 min 65 W/m 0,0 km/h (0 Bft) 100,00 %
07.01.2020 12:54 7,8 C 7,8 C 7,2 C 96 % 1028,0 hPa 0,0 l/m 0 min 0 min 66 W/m 0,0 km/h (0 Bft) 100,00 %
07.01.2020 12:56 7,8 C 7,8 C 7,2 C 96 % 1028,0 hPa 0,0 l/m 0 min 0 min 65 W/m 0,0 km/h (0 Bft) 100,00 %
07.01.2020 12:58 7,8 C 7,8 C 7,2 C 96 % 1028,0 hPa 0,0 l/m 0 min 0 min 62 W/m 0,0 km/h (0 Bft) 100,00 %
07.01.2020 13:00 7,9 C 7,8 C 7,2 C 96 % 1028,0 hPa 0,0 l/m 0 min 0 min 52 W/m 3,2 km/h (1 Bft) 97,87 %
07.01.2020 13:02 7,9 C 7,8 C 7,2 C 96 % 1028,0 hPa 0,0 l/m 0 min 0 min 51 W/m 9,7 km/h (2 Bft) 100,00 %
07.01.2020 13:04 7,9 C 7,8 C 7,2 C 96 % 1028,0 hPa 0,0 l/m 0 min 0 min 43 W/m 16,1 km/h (3 Bft) 97,87 %
07.01.2020 13:06 7,9 C 7,8 C 7,2 C 95 % 1028,0 hPa 0,0 l/m 0 min 0 min 35 W/m 16,1 km/h (3 Bft) 100,00 %
07.01.2020 13:08 7,9 C 7,8 C 7,2 C 96 % 1028,0 hPa 0,0 l/m 0 min 0 min 38 W/m 12,9 km/h (3 Bft) 100,00 %
07.01.2020 13:10 7,9 C 7,8 C 7,2 C 95 % 1027,9 hPa 0,0 l/m 0 min 0 min 48 W/m 3,2 km/h (1 Bft) 100,00 %
07.01.2020 13:12 7,9 C 7,8 C 6,7 C 95 % 1028,0 hPa 0,0 l/m 0 min 0 min 41 W/m 0,0 km/h (0 Bft) 100,00 %
07.01.2020 13:14 7,9 C 7,8 C 7,2 C 95 % 1027,9 hPa 0,0 l/m 0 min 0 min 38 W/m 0,0 km/h (0 Bft) 100,00 %
07.01.2020 13:16 7,9 C 7,8 C 7,2 C 95 % 1028,0 hPa 0,0 l/m 0 min 0 min 44 W/m 0,0 km/h (0 Bft) 97,87 %
07.01.2020 13:18 7,9 C 7,8 C 7,2 C 95 % 1028,0 hPa 0,0 l/m 0 min 0 min 40 W/m 29,0 km/h (5 Bft) 100,00 %
07.01.2020 13:20 7,9 C 7,8 C 6,7 C 95 % 1028,0 hPa 0,0 l/m 0 min 0 min 39 W/m 3,2 km/h (1 Bft) 97,87 %
07.01.2020 13:22 7,9 C 7,8 C 6,7 C 95 % 1027,9 hPa 0,0 l/m 0 min 0 min 33 W/m 0,0 km/h (0 Bft) 95,74 %
07.01.2020 13:24 7,9 C 7,8 C 6,7 C 95 % 1027,9 hPa 0,0 l/m 0 min 0 min 35 W/m 19,3 km/h (3 Bft) 95,74 %
07.01.2020 13:26 7,9 C 7,8 C 7,2 C 95 % 1027,9 hPa 0,0 l/m 0 min 0 min 48 W/m 3,2 km/h (1 Bft) 97,83 %
07.01.2020 13:28 7,9 C 7,8 C 7,2 C 95 % 1027,8 hPa 0,0 l/m 0 min 0 min 95 W/m 6,4 km/h (2 Bft) 100,00 %
07.01.2020 13:30 7,9 C 7,8 C 7,2 C 95 % 1027,8 hPa 0,0 l/m 0 min 0 min 80 W/m 12,9 km/h (3 Bft) 97,87 %
07.01.2020 13:32 7,9 C 7,8 C 7,2 C 94 % 1027,8 hPa 0,0 l/m 0 min 0 min 76 W/m 0,0 km/h (0 Bft) 97,87 %
07.01.2020 13:34 7,9 C 7,8 C 7,2 C 94 % 1027,8 hPa 0,0 l/m 0 min 0 min 71 W/m 12,9 km/h (3 Bft) 97,87 %
07.01.2020 13:36 7,9 C 7,8 C 7,2 C 94 % 1027,8 hPa 0,0 l/m 0 min 0 min 70 W/m 3,2 km/h (1 Bft) 95,74 %
07.01.2020 13:38 7,9 C 7,8 C 7,2 C 94 % 1027,8 hPa 0,0 l/m 0 min 0 min 72 W/m 22,5 km/h (4 Bft) 97,83 %
07.01.2020 13:40 8,0 C 7,8 C 7,2 C 94 % 1027,8 hPa 0,0 l/m 0 min 0 min 67 W/m 22,5 km/h (4 Bft) 97,87 %
07.01.2020 13:42 8,0 C 7,8 C 7,2 C 94 % 1027,8 hPa 0,0 l/m 0 min 0 min 71 W/m 19,3 km/h (3 Bft) 97,87 %
07.01.2020 13:44 8,0 C 7,8 C 7,2 C 94 % 1027,8 hPa 0,0 l/m 0 min 0 min 62 W/m 25,7 km/h (4 Bft) 97,87 %
07.01.2020 13:46 8,0 C 7,8 C 7,2 C 94 % 1027,8 hPa 0,0 l/m 0 min 0 min 51 W/m 16,1 km/h (3 Bft) 95,74 %
07.01.2020 13:48 8,1 C 7,8 C 7,2 C 94 % 1027,7 hPa 0,0 l/m 0 min 0 min 45 W/m 22,5 km/h (4 Bft) 97,83 %
07.01.2020 13:50 8,1 C 7,8 C 7,2 C 94 % 1027,7 hPa 0,0 l/m 0 min 0 min 45 W/m 3,2 km/h (1 Bft) 91,49 %
07.01.2020 13:52 8,1 C 7,8 C 7,2 C 94 % 1027,6 hPa 0,0 l/m 0 min 0 min 49 W/m 0,0 km/h (0 Bft) 91,49 %
07.01.2020 13:54 8,1 C 7,8 C 7,2 C 94 % 1027,7 hPa 0,0 l/m 0 min 0 min 52 W/m 0,0 km/h (0 Bft) 93,62 %
07.01.2020 13:56 8,1 C 7,8 C 7,2 C 93 % 1027,8 hPa 0,0 l/m 0 min 0 min 43 W/m 0,0 km/h (0 Bft) 93,62 %
07.01.2020 13:58 8,1 C 7,8 C 7,2 C 93 % 1027,8 hPa 0,0 l/m 0 min 0 min 33 W/m 12,9 km/h (3 Bft) 91,49 %
07.01.2020 14:00 8,1 C 7,8 C 7,2 C 93 % 1027,8 hPa 0,0 l/m 0 min 0 min 31 W/m 0,0 km/h (0 Bft) 93,48 %
07.01.2020 14:02 8,1 C 7,8 C 7,2 C 93 % 1027,8 hPa 0,0 l/m 0 min 0 min 42 W/m 0,0 km/h (0 Bft) 91,49 %
07.01.2020 14:04 8,1 C 7,8 C 7,2 C 93 % 1027,7 hPa 0,0 l/m 0 min 0 min 64 W/m 3,2 km/h (1 Bft) 93,62 %
07.01.2020 14:06 8,1 C 7,8 C 7,2 C 93 % 1027,8 hPa 0,0 l/m 0 min 0 min 75 W/m 0,0 km/h (0 Bft) 93,62 %
07.01.2020 14:08 8,2 C 7,8 C 7,2 C 93 % 1027,8 hPa 0,0 l/m 0 min 0 min 62 W/m 0,0 km/h (0 Bft) 93,62 %
07.01.2020 14:10 8,2 C 7,8 C 7,2 C 93 % 1027,8 hPa 0,0 l/m 0 min 0 min 56 W/m 3,2 km/h (1 Bft) 91,49 %
07.01.2020 14:12 8,2 C 8,3 C 7,2 C 93 % 1027,7 hPa 0,0 l/m 0 min 0 min 69 W/m 0,0 km/h (0 Bft) 93,48 %
07.01.2020 14:14 8,2 C 8,3 C 7,8 C 93 % 1027,7 hPa 0,0 l/m 0 min 0 min 84 W/m 0,0 km/h (0 Bft) 93,62 %
07.01.2020 14:16 8,2 C 8,3 C 7,8 C 93 % 1027,7 hPa 0,0 l/m 0 min 0 min 93 W/m 0,0 km/h (0 Bft) 93,62 %
07.01.2020 14:18 8,2 C 8,3 C 7,8 C 93 % 1027,7 hPa 0,0 l/m 0 min 0 min 94 W/m 3,2 km/h (1 Bft) 91,49 %
07.01.2020 14:20 8,3 C 8,3 C 7,8 C 93 % 1027,7 hPa 0,0 l/m 0 min 0 min 79 W/m 3,2 km/h (1 Bft) 93,62 %
07.01.2020 14:22 8,3 C 8,3 C 7,8 C 93 % 1027,7 hPa 0,0 l/m 0 min 0 min 57 W/m 6,4 km/h (2 Bft) 80,85 %
07.01.2020 14:24 8,3 C 8,3 C 7,2 C 93 % 1027,8 hPa 0,0 l/m 0 min 0 min 48 W/m 0,0 km/h (0 Bft) 60,98 %
07.01.2020 14:26 8,3 C 8,3 C 7,2 C 93 % 1027,8 hPa 0,0 l/m 0 min 0 min 42 W/m 0,0 km/h (0 Bft) 93,62 %
07.01.2020 14:28 8,3 C 8,3 C 7,2 C 93 % 1027,8 hPa 0,0 l/m 0 min 0 min 42 W/m 3,2 km/h (1 Bft) 93,62 %
07.01.2020 14:30 8,3 C 7,8 C 7,2 C 93 % 1027,8 hPa 0,0 l/m 0 min 0 min 38 W/m 12,9 km/h (3 Bft) 93,62 %
07.01.2020 14:32 8,3 C 7,8 C 7,2 C 93 % 1027,7 hPa 0,0 l/m 0 min 0 min 38 W/m 0,0 km/h (0 Bft) 97,87 %
07.01.2020 14:34 8,3 C 7,8 C 7,2 C 92 % 1027,8 hPa 0,0 l/m 0 min 0 min 38 W/m 12,9 km/h (3 Bft) 95,65 %
07.01.2020 14:36 8,3 C 7,8 C 7,2 C 93 % 1027,7 hPa 0,0 l/m 0 min 0 min 50 W/m 0,0 km/h (0 Bft) 95,74 %
07.01.2020 14:38 8,3 C 7,8 C 7,2 C 93 % 1027,7 hPa 0,0 l/m 0 min 0 min 52 W/m 0,0 km/h (0 Bft) 95,74 %
07.01.2020 14:40 8,3 C 8,3 C 7,2 C 92 % 1027,7 hPa 0,0 l/m 0 min 0 min 61 W/m 0,0 km/h (0 Bft) 97,87 %
07.01.2020 14:42 8,3 C 8,3 C 7,2 C 92 % 1027,7 hPa 0,0 l/m 0 min 0 min 67 W/m 0,0 km/h (0 Bft) 97,87 %
07.01.2020 14:44 8,4 C 8,3 C 7,8 C 92 % 1027,8 hPa 0,0 l/m 0 min 0 min 74 W/m 6,4 km/h (2 Bft) 97,87 %
07.01.2020 14:46 8,4 C 8,3 C 7,8 C 92 % 1027,7 hPa 0,0 l/m 0 min 0 min 81 W/m 3,2 km/h (1 Bft) 100,00 %
07.01.2020 14:48 8,4 C 8,3 C 7,8 C 92 % 1027,7 hPa 0,0 l/m 0 min 0 min 74 W/m 0,0 km/h (0 Bft) 100,00 %
07.01.2020 14:50 8,4 C 8,3 C 7,8 C 92 % 1027,7 hPa 0,0 l/m 0 min 0 min 68 W/m 3,2 km/h (1 Bft) 97,87 %
07.01.2020 14:52 8,4 C 8,3 C 7,8 C 92 % 1027,7 hPa 0,0 l/m 0 min 0 min 59 W/m 3,2 km/h (1 Bft) 100,00 %
07.01.2020 14:54 8,4 C 8,3 C 7,8 C 92 % 1027,7 hPa 0,0 l/m 0 min 0 min 75 W/m 0,0 km/h (0 Bft) 100,00 %
07.01.2020 14:56 8,4 C 8,3 C 7,8 C 92 % 1027,7 hPa 0,0 l/m 2 min 0 min 114 W/m 0,0 km/h (0 Bft) 100,00 %
07.01.2020 14:58 8,4 C 8,3 C 7,8 C 92 % 1027,6 hPa 0,0 l/m 0 min 0 min 79 W/m 0,0 km/h (0 Bft) 97,83 %
07.01.2020 15:00 8,5 C 8,9 C 7,8 C 92 % 1027,6 hPa 0,0 l/m 0 min 0 min 74 W/m 3,2 km/h (1 Bft) 100,00 %
07.01.2020 15:02 8,5 C 8,3 C 7,8 C 92 % 1027,7 hPa 0,0 l/m 0 min 0 min 72 W/m 0,0 km/h (0 Bft) 100,00 %
07.01.2020 15:04 8,5 C 8,3 C 7,8 C 92 % 1027,6 hPa 0,0 l/m 0 min 0 min 70 W/m 12,9 km/h (3 Bft) 100,00 %
07.01.2020 15:06 8,5 C 8,3 C 7,8 C 92 % 1027,6 hPa 0,0 l/m 0 min 0 min 66 W/m 12,9 km/h (3 Bft) 100,00 %
07.01.2020 15:08 8,6 C 8,3 C 7,2 C 92 % 1027,6 hPa 0,0 l/m 0 min 0 min 62 W/m 16,1 km/h (3 Bft) 100,00 %
07.01.2020 15:10 8,6 C 8,3 C 7,2 C 92 % 1027,5 hPa 0,0 l/m 0 min 0 min 61 W/m 3,2 km/h (1 Bft) 100,00 %
07.01.2020 15:12 8,6 C 8,3 C 7,2 C 92 % 1027,5 hPa 0,0 l/m 0 min 0 min 60 W/m 12,9 km/h (3 Bft) 100,00 %
07.01.2020 15:14 8,6 C 8,3 C 7,2 C 92 % 1027,5 hPa 0,0 l/m 0 min 0 min 61 W/m 0,0 km/h (0 Bft) 100,00 %
07.01.2020 15:16 8,6 C 8,3 C 7,2 C 92 % 1027,5 hPa 0,0 l/m 0 min 0 min 59 W/m 0,0 km/h (0 Bft) 100,00 %
07.01.2020 15:18 8,6 C 8,3 C 7,2 C 91 % 1027,5 hPa 0,0 l/m 0 min 0 min 56 W/m 0,0 km/h (0 Bft) 97,87 %
07.01.2020 15:20 8,6 C 8,3 C 7,2 C 91 % 1027,5 hPa 0,0 l/m 0 min 0 min 57 W/m 0,0 km/h (0 Bft) 100,00 %
07.01.2020 15:22 8,6 C 8,3 C 7,2 C 91 % 1027,6 hPa 0,0 l/m 0 min 0 min 62 W/m 0,0 km/h (0 Bft) 100,00 %
07.01.2020 15:24 8,6 C 8,3 C 7,8 C 91 % 1027,6 hPa 0,0 l/m 0 min 0 min 64 W/m 0,0 km/h (0 Bft) 100,00 %
07.01.2020 15:26 8,6 C 8,3 C 7,2 C 91 % 1027,6 hPa 0,0 l/m 0 min 0 min 43 W/m 0,0 km/h (0 Bft) 100,00 %
07.01.2020 15:28 8,7 C 8,3 C 7,8 C 91 % 1027,6 hPa 0,0 l/m 0 min 0 min 39 W/m 0,0 km/h (0 Bft) 100,00 %
07.01.2020 15:30 8,7 C 8,3 C 7,8 C 91 % 1027,6 hPa 0,0 l/m 0 min 0 min 42 W/m 0,0 km/h (0 Bft) 100,00 %
07.01.2020 15:32 8,7 C 8,3 C 7,8 C 91 % 1027,5 hPa 0,0 l/m 0 min 0 min 42 W/m 0,0 km/h (0 Bft) 100,00 %
07.01.2020 15:34 8,7 C 8,3 C 7,8 C 91 % 1027,5 hPa 0,0 l/m 0 min 0 min 40 W/m 0,0 km/h (0 Bft) 100,00 %
07.01.2020 15:36 8,7 C 8,3 C 7,8 C 91 % 1027,6 hPa 0,0 l/m 0 min 0 min 38 W/m 0,0 km/h (0 Bft) 100,00 %
07.01.2020 15:38 8,7 C 8,3 C 7,8 C 91 % 1027,5 hPa 0,0 l/m 0 min 0 min 43 W/m 3,2 km/h (1 Bft) 100,00 %
07.01.2020 15:40 8,7 C 8,3 C 7,8 C 91 % 1027,5 hPa 0,0 l/m 0 min 0 min 52 W/m 3,2 km/h (1 Bft) 97,87 %
07.01.2020 15:42 8,7 C 8,9 C 7,8 C 91 % 1027,5 hPa 0,0 l/m 2 min 0 min 64 W/m 0,0 km/h (0 Bft) 100,00 %
07.01.2020 15:44 8,7 C 8,9 C 7,8 C 91 % 1027,6 hPa 0,0 l/m 2 min 0 min 65 W/m 22,5 km/h (4 Bft) 97,83 %
07.01.2020 15:46 8,7 C 8,9 C 7,8 C 91 % 1027,5 hPa 0,0 l/m 2 min 0 min 66 W/m 25,7 km/h (4 Bft) 97,87 %
07.01.2020 15:48 8,7 C 8,9 C 7,8 C 90 % 1027,5 hPa 0,0 l/m 2 min 0 min 62 W/m 19,3 km/h (3 Bft) 100,00 %
07.01.2020 15:50 8,8 C 8,9 C 7,8 C 90 % 1027,5 hPa 0,0 l/m 2 min 0 min 60 W/m 0,0 km/h (0 Bft) 100,00 %
07.01.2020 15:52 8,8 C 8,9 C 7,8 C 90 % 1027,4 hPa 0,0 l/m 2 min 0 min 68 W/m 16,1 km/h (3 Bft) 97,87 %
07.01.2020 15:54 8,8 C 8,9 C 7,8 C 89 % 1027,4 hPa 0,0 l/m 2 min 0 min 64 W/m 12,9 km/h (3 Bft) 97,87 %
07.01.2020 15:56 8,8 C 8,9 C 7,8 C 89 % 1027,5 hPa 0,0 l/m 2 min 0 min 65 W/m 22,5 km/h (4 Bft) 97,83 %
07.01.2020 15:58 8,8 C 8,3 C 7,8 C 89 % 1027,4 hPa 0,0 l/m 2 min 0 min 60 W/m 25,7 km/h (4 Bft) 100,00 %
07.01.2020 16:00 8,8 C 8,3 C 7,8 C 89 % 1027,3 hPa 0,0 l/m 2 min 0 min 48 W/m 16,1 km/h (3 Bft) 100,00 %
07.01.2020 16:02 8,8 C 8,3 C 7,8 C 89 % 1027,3 hPa 0,0 l/m 0 min 0 min 38 W/m 3,2 km/h (1 Bft) 100,00 %
07.01.2020 16:04 8,8 C 8,3 C 7,2 C 89 % 1027,3 hPa 0,0 l/m 0 min 0 min 33 W/m 12,9 km/h (3 Bft) 100,00 %
07.01.2020 16:06 8,8 C 8,3 C 7,2 C 88 % 1027,4 hPa 0,0 l/m 0 min 0 min 31 W/m 0,0 km/h (0 Bft) 97,87 %
07.01.2020 16:08 8,8 C 8,3 C 7,2 C 88 % 1027,4 hPa 0,0 l/m 0 min 0 min 30 W/m 0,0 km/h (0 Bft) 97,83 %
07.01.2020 16:10 8,8 C 8,3 C 7,2 C 88 % 1027,4 hPa 0,0 l/m 0 min 0 min 31 W/m 0,0 km/h (0 Bft) 97,87 %
07.01.2020 16:12 8,8 C 8,3 C 7,2 C 88 % 1027,4 hPa 0,0 l/m 2 min 0 min 33 W/m 0,0 km/h (0 Bft) 97,87 %
07.01.2020 16:14 8,8 C 7,8 C 7,2 C 88 % 1027,4 hPa 0,0 l/m 2 min 0 min 32 W/m 0,0 km/h (0 Bft) 100,00 %
07.01.2020 16:16 8,8 C 7,8 C 7,2 C 88 % 1027,3 hPa 0,0 l/m 2 min 0 min 27 W/m 3,2 km/h (1 Bft) 100,00 %
07.01.2020 16:18 8,7 C 7,8 C 7,2 C 88 % 1027,3 hPa 0,0 l/m 2 min 0 min 23 W/m 0,0 km/h (0 Bft) 97,87 %
07.01.2020 16:20 8,7 C 7,8 C 7,2 C 88 % 1027,4 hPa 0,0 l/m 2 min 0 min 22 W/m 19,3 km/h (3 Bft) 95,65 %
07.01.2020 16:22 8,7 C 7,8 C 7,2 C 88 % 1027,4 hPa 0,0 l/m 0 min 0 min 19 W/m 12,9 km/h (3 Bft) 95,74 %
07.01.2020 16:24 8,7 C 7,8 C 7,2 C 88 % 1027,4 hPa 0,0 l/m 0 min 0 min 17 W/m 0,0 km/h (0 Bft) 95,74 %
07.01.2020 16:26 8,7 C 7,8 C 7,2 C 88 % 1027,4 hPa 0,0 l/m 0 min 0 min 14 W/m 0,0 km/h (0 Bft) 95,74 %
07.01.2020 16:28 8,6 C 7,8 C 6,7 C 88 % 1027,5 hPa 0,0 l/m 0 min 0 min 14 W/m 3,2 km/h (1 Bft) 93,62 %
07.01.2020 16:30 8,6 C 7,8 C 6,7 C 88 % 1027,5 hPa 0,0 l/m 0 min 0 min 14 W/m 0,0 km/h (0 Bft) 95,74 %
07.01.2020 16:32 8,6 C 7,2 C 6,7 C 88 % 1027,4 hPa 0,0 l/m 0 min 0 min 12 W/m 0,0 km/h (0 Bft) 93,48 %
07.01.2020 16:34 8,6 C 7,2 C 6,7 C 88 % 1027,4 hPa 0,0 l/m 0 min 0 min 12 W/m 0,0 km/h (0 Bft) 93,62 %
07.01.2020 16:36 8,5 C 7,2 C 6,7 C 88 % 1027,5 hPa 0,0 l/m 0 min 0 min 11 W/m 0,0 km/h (0 Bft) 95,74 %
07.01.2020 16:38 8,5 C 7,2 C 6,7 C 88 % 1027,5 hPa 0,0 l/m 0 min 0 min 11 W/m 0,0 km/h (0 Bft) 95,74 %
07.01.2020 16:40 8,5 C 7,2 C 6,7 C 88 % 1027,5 hPa 0,0 l/m 0 min 0 min 9 W/m 0,0 km/h (0 Bft) 95,74 %
07.01.2020 16:42 8,4 C 7,2 C 6,7 C 88 % 1027,5 hPa 0,0 l/m 0 min 0 min 8 W/m 0,0 km/h (0 Bft) 95,65 %
07.01.2020 16:44 8,4 C 7,2 C 6,7 C 88 % 1027,5 hPa 0,0 l/m 0 min 0 min 7 W/m 0,0 km/h (0 Bft) 95,74 %
07.01.2020 16:46 8,4 C 7,2 C 6,1 C 88 % 1027,5 hPa 0,0 l/m 0 min 0 min 5 W/m 0,0 km/h (0 Bft) 91,49 %
07.01.2020 16:48 8,3 C 7,2 C 6,1 C 88 % 1027,5 hPa 0,0 l/m 0 min 0 min 5 W/m 0,0 km/h (0 Bft) 95,74 %
07.01.2020 16:50 8,3 C 7,2 C 6,1 C 88 % 1027,5 hPa 0,0 l/m 0 min 0 min 5 W/m 0,0 km/h (0 Bft) 95,74 %
07.01.2020 16:52 8,3 C 6,7 C 6,1 C 88 % 1027,5 hPa 0,0 l/m 0 min 0 min 5 W/m 0,0 km/h (0 Bft) 95,74 %
07.01.2020 16:54 8,2 C 6,7 C 6,1 C 89 % 1027,5 hPa 0,0 l/m 0 min 0 min 2 W/m 0,0 km/h (0 Bft) 95,65 %
07.01.2020 16:56 8,2 C 6,7 C 6,1 C 89 % 1027,5 hPa 0,0 l/m 0 min 0 min 0 W/m 0,0 km/h (0 Bft) 93,62 %
07.01.2020 16:58 8,2 C 6,7 C 6,1 C 88 % 1027,5 hPa 0,0 l/m 0 min 0 min 0 W/m 0,0 km/h (0 Bft) 93,62 %
07.01.2020 17:00 8,1 C 6,7 C 6,1 C 89 % 1027,5 hPa 0,0 l/m 0 min 0 min 0 W/m 0,0 km/h (0 Bft) 93,62 %
07.01.2020 17:02 8,1 C 6,7 C 5,6 C 89 % 1027,4 hPa 0,0 l/m 0 min 0 min 0 W/m 0,0 km/h (0 Bft) 93,62 %
07.01.2020 17:04 8,1 C 6,7 C 5,6 C 89 % 1027,4 hPa 0,0 l/m 0 min 0 min 0 W/m 0,0 km/h (0 Bft) 93,62 %
07.01.2020 17:06 8,0 C 6,7 C 5,6 C 89 % 1027,4 hPa 0,0 l/m 0 min 0 min 0 W/m 0,0 km/h (0 Bft) 95,65 %
07.01.2020 17:08 7,9 C 6,7 C 6,1 C 89 % 1027,4 hPa 0,0 l/m 0 min 0 min 0 W/m 0,0 km/h (0 Bft) 97,87 %
07.01.2020 17:10 7,9 C 6,7 C 5,6 C 89 % 1027,3 hPa 0,0 l/m 0 min 0 min 0 W/m 0,0 km/h (0 Bft) 97,87 %
07.01.2020 17:12 7,9 C 6,7 C 5,6 C 89 % 1027,3 hPa 0,0 l/m 0 min 0 min 0 W/m 0,0 km/h (0 Bft) 97,87 %
07.01.2020 17:14 7,8 C 6,7 C 5,6 C 89 % 1027,3 hPa 0,0 l/m 0 min 0 min 0 W/m 0,0 km/h (0 Bft) 97,87 %
07.01.2020 17:16 7,8 C 6,7 C 5,6 C 89 % 1027,3 hPa 0,0 l/m 0 min 0 min 0 W/m 0,0 km/h (0 Bft) 95,74 %
07.01.2020 17:18 7,7 C 6,1 C 5,6 C 90 % 1027,2 hPa 0,0 l/m 0 min 0 min 0 W/m 12,9 km/h (3 Bft) 97,83 %
07.01.2020 17:20 7,7 C 6,1 C 5,6 C 90 % 1027,2 hPa 0,0 l/m 0 min 0 min 0 W/m 0,0 km/h (0 Bft) 97,87 %
07.01.2020 17:22 7,6 C 6,1 C 5,6 C 90 % 1027,2 hPa 0,0 l/m 0 min 0 min 0 W/m 0,0 km/h (0 Bft) 97,87 %
07.01.2020 17:24 7,6 C 6,1 C 5,6 C 90 % 1027,3 hPa 0,0 l/m 0 min 0 min 0 W/m 3,2 km/h (1 Bft) 95,74 %
07.01.2020 17:26 7,6 C 6,1 C 5,6 C 90 % 1027,2 hPa 0,0 l/m 0 min 0 min 0 W/m 0,0 km/h (0 Bft) 97,87 %
07.01.2020 17:28 7,5 C 6,1 C 5,6 C 90 % 1027,2 hPa 0,0 l/m 0 min 0 min 0 W/m 0,0 km/h (0 Bft) 97,87 %
07.01.2020 17:30 7,4 C 6,1 C 5,6 C 90 % 1027,3 hPa 0,0 l/m 0 min 0 min 0 W/m 0,0 km/h (0 Bft) 95,65 %
07.01.2020 17:32 7,4 C 6,1 C 5,6 C 90 % 1027,3 hPa 0,0 l/m 0 min 0 min 0 W/m 0,0 km/h (0 Bft) 97,87 %
07.01.2020 17:34 7,3 C 6,1 C 5,6 C 90 % 1027,4 hPa 0,0 l/m 0 min 0 min 0 W/m 3,2 km/h (1 Bft) 97,87 %
07.01.2020 17:36 7,3 C 6,1 C 5,6 C 91 % 1027,3 hPa 0,0 l/m 0 min 0 min 0 W/m 12,9 km/h (3 Bft) 95,74 %
07.01.2020 17:38 7,3 C 6,1 C 5,6 C 91 % 1027,3 hPa 0,0 l/m 0 min 0 min 0 W/m 0,0 km/h (0 Bft) 97,87 %
07.01.2020 17:40 7,3 C 6,1 C 5,6 C 91 % 1027,3 hPa 0,0 l/m 0 min 0 min 0 W/m 3,2 km/h (1 Bft) 95,65 %
07.01.2020 17:42 7,2 C 6,1 C 5,6 C 91 % 1027,2 hPa 0,0 l/m 0 min 0 min 0 W/m 6,4 km/h (2 Bft) 97,87 %
07.01.2020 17:44 7,2 C 6,1 C 5,6 C 91 % 1027,2 hPa 0,0 l/m 0 min 0 min 0 W/m 0,0 km/h (0 Bft) 97,87 %
07.01.2020 17:46 7,2 C 6,1 C 5,6 C 91 % 1027,2 hPa 0,0 l/m 0 min 0 min 0 W/m 0,0 km/h (0 Bft) 97,87 %
07.01.2020 17:48 7,1 C 6,1 C 5,6 C 91 % 1027,2 hPa 0,0 l/m 0 min 0 min 0 W/m 3,2 km/h (1 Bft) 97,87 %
07.01.2020 17:50 7,1 C 6,1 C 5,6 C 91 % 1027,2 hPa 0,0 l/m 0 min 0 min 0 W/m 6,4 km/h (2 Bft) 97,87 %
07.01.2020 17:52 7,1 C 6,1 C 5,6 C 91 % 1027,2 hPa 0,0 l/m 0 min 0 min 0 W/m 0,0 km/h (0 Bft) 97,83 %
07.01.2020 17:54 7,1 C 6,1 C 5,6 C 91 % 1027,2 hPa 0,0 l/m 0 min 0 min 0 W/m 0,0 km/h (0 Bft) 97,87 %
07.01.2020 17:56 7,1 C 6,1 C 5,6 C 91 % 1027,2 hPa 0,0 l/m 0 min 0 min 0 W/m 3,2 km/h (1 Bft) 100,00 %
07.01.2020 17:58 7,0 C 6,1 C 5,6 C 91 % 1027,2 hPa 0,0 l/m 0 min 0 min 0 W/m 3,2 km/h (1 Bft) 100,00 %
07.01.2020 18:00 7,0 C 6,1 C 5,6 C 91 % 1027,1 hPa 0,0 l/m 0 min 0 min 0 W/m 0,0 km/h (0 Bft) 100,00 %
07.01.2020 18:02 6,9 C 6,1 C 5,6 C 91 % 1027,1 hPa 0,0 l/m 0 min 0 min 0 W/m 3,2 km/h (1 Bft) 97,87 %
07.01.2020 18:04 6,9 C 6,1 C 5,6 C 91 % 1027,2 hPa 0,0 l/m 0 min 0 min 0 W/m 0,0 km/h (0 Bft) 95,65 %
07.01.2020 18:06 6,9 C 6,1 C 5,6 C 91 % 1027,2 hPa 0,0 l/m 0 min 0 min 0 W/m 0,0 km/h (0 Bft) 97,87 %
07.01.2020 18:08 6,9 C 6,1 C 5,6 C 91 % 1027,1 hPa 0,0 l/m 0 min 0 min 0 W/m 3,2 km/h (1 Bft) 100,00 %
07.01.2020 18:10 6,9 C 6,1 C 5,6 C 91 % 1027,1 hPa 0,0 l/m 0 min 0 min 0 W/m 3,2 km/h (1 Bft) 100,00 %
07.01.2020 18:12 6,9 C 6,1 C 5,6 C 91 % 1027,1 hPa 0,0 l/m 0 min 0 min 0 W/m 12,9 km/h (3 Bft) 100,00 %
07.01.2020 18:14 6,9 C 6,1 C 5,6 C 91 % 1027,1 hPa 0,0 l/m 0 min 0 min 0 W/m 0,0 km/h (0 Bft) 97,87 %
07.01.2020 18:16 6,9 C 6,1 C 5,6 C 91 % 1027,2 hPa 0,0 l/m 0 min 0 min 0 W/m 0,0 km/h (0 Bft) 100,00 %
07.01.2020 18:18 6,9 C 6,1 C 5,6 C 91 % 1027,1 hPa 0,0 l/m 0 min 0 min 0 W/m 0,0 km/h (0 Bft) 100,00 %
07.01.2020 18:20 6,9 C 6,1 C 5,6 C 91 % 1027,2 hPa 0,0 l/m 0 min 0 min 0 W/m 0,0 km/h (0 Bft) 100,00 %
07.01.2020 18:22 6,9 C 6,1 C 5,6 C 91 % 1027,2 hPa 0,0 l/m 0 min 0 min 0 W/m 0,0 km/h (0 Bft) 100,00 %
07.01.2020 18:24 6,9 C 6,1 C 5,6 C 91 % 1027,2 hPa 0,0 l/m 0 min 0 min 0 W/m 0,0 km/h (0 Bft) 100,00 %
07.01.2020 18:26 6,8 C 6,1 C 5,6 C 91 % 1027,1 hPa 0,0 l/m 0 min 0 min 0 W/m 3,2 km/h (1 Bft) 97,87 %
07.01.2020 18:28 6,8 C 6,1 C 5,6 C 91 % 1027,1 hPa 0,0 l/m 0 min 0 min 0 W/m 0,0 km/h (0 Bft) 95,65 %
07.01.2020 18:30 6,8 C 6,1 C 5,6 C 91 % 1027,1 hPa 0,0 l/m 0 min 0 min 0 W/m 0,0 km/h (0 Bft) 97,87 %
07.01.2020 18:32 6,8 C 6,1 C 5,6 C 91 % 1027,2 hPa 0,0 l/m 0 min 0 min 0 W/m 0,0 km/h (0 Bft) 100,00 %
07.01.2020 18:34 6,8 C 6,1 C 5,0 C 91 % 1027,1 hPa 0,0 l/m 0 min 0 min 0 W/m 0,0 km/h (0 Bft) 100,00 %
07.01.2020 18:36 6,8 C 6,1 C 5,6 C 92 % 1027,1 hPa 0,0 l/m 0 min 0 min 0 W/m 0,0 km/h (0 Bft) 100,00 %
07.01.2020 18:38 6,8 C 6,1 C 5,6 C 91 % 1027,0 hPa 0,0 l/m 0 min 0 min 0 W/m 0,0 km/h (0 Bft) 100,00 %
07.01.2020 18:40 6,8 C 6,1 C 5,6 C 92 % 1026,9 hPa 0,0 l/m 0 min 0 min 0 W/m 0,0 km/h (0 Bft) 100,00 %
07.01.2020 18:42 6,8 C 6,1 C 5,6 C 92 % 1026,8 hPa 0,0 l/m 0 min 0 min 0 W/m 0,0 km/h (0 Bft) 100,00 %
07.01.2020 18:44 6,8 C 6,1 C 5,6 C 92 % 1026,9 hPa 0,0 l/m 0 min 0 min 0 W/m 3,2 km/h (1 Bft) 100,00 %
07.01.2020 18:46 6,8 C 6,1 C 5,6 C 92 % 1026,8 hPa 0,0 l/m 0 min 0 min 0 W/m 6,4 km/h (2 Bft) 97,87 %
07.01.2020 18:48 6,8 C 6,7 C 5,6 C 92 % 1026,9 hPa 0,0 l/m 0 min 0 min 0 W/m 0,0 km/h (0 Bft) 97,87 %
07.01.2020 18:50 6,8 C 6,7 C 5,6 C 92 % 1026,9 hPa 0,0 l/m 0 min 0 min 0 W/m 0,0 km/h (0 Bft) 100,00 %
07.01.2020 18:52 6,8 C 6,7 C 5,6 C 92 % 1026,9 hPa 0,0 l/m 0 min 0 min 0 W/m 0,0 km/h (0 Bft) 97,87 %
07.01.2020 18:54 6,8 C 6,7 C 5,6 C 92 % 1026,9 hPa 0,0 l/m 0 min 0 min 0 W/m 0,0 km/h (0 Bft) 95,74 %
07.01.2020 18:56 6,8 C 6,7 C 5,6 C 91 % 1026,8 hPa 0,0 l/m 0 min 0 min 0 W/m 0,0 km/h (0 Bft) 95,74 %
07.01.2020 18:58 6,8 C 6,7 C 5,6 C 91 % 1026,8 hPa 0,0 l/m 0 min 0 min 0 W/m 0,0 km/h (0 Bft) 93,62 %
07.01.2020 19:00 6,8 C 6,7 C 5,6 C 91 % 1026,8 hPa 0,0 l/m 0 min 0 min 0 W/m 0,0 km/h (0 Bft) 95,74 %
07.01.2020 19:02 6,8 C 6,7 C 5,6 C 91 % 1026,8 hPa 0,0 l/m 0 min 0 min 0 W/m 0,0 km/h (0 Bft) 91,30 %
07.01.2020 19:04 6,8 C 6,7 C 5,6 C 91 % 1026,8 hPa 0,0 l/m 0 min 0 min 0 W/m 0,0 km/h (0 Bft) 53,33 %
07.01.2020 19:06 6,8 C 6,1 C 5,6 C 91 % 1026,8 hPa 0,0 l/m 0 min 0 min 0 W/m 0,0 km/h (0 Bft) 93,62 %
07.01.2020 19:08 6,8 C 6,7 C 5,6 C 91 % 1026,7 hPa 0,0 l/m 0 min 0 min 0 W/m 0,0 km/h (0 Bft) 95,74 %
07.01.2020 19:10 6,9 C 6,7 C 5,6 C 91 % 1026,7 hPa 0,0 l/m 0 min 0 min 0 W/m 0,0 km/h (0 Bft) 95,74 %
07.01.2020 19:12 6,9 C 6,7 C 5,6 C 91 % 1026,7 hPa 0,0 l/m 0 min 0 min 0 W/m 3,2 km/h (1 Bft) 93,62 %
07.01.2020 19:14 6,9 C 6,7 C 5,6 C 91 % 1026,8 hPa 0,0 l/m 0 min 0 min 0 W/m 0,0 km/h (0 Bft) 95,65 %
07.01.2020 19:16 6,9 C 6,7 C 5,6 C 91 % 1026,7 hPa 0,0 l/m 0 min 0 min 0 W/m 0,0 km/h (0 Bft) 95,74 %
07.01.2020 19:18 6,9 C 6,7 C 5,6 C 91 % 1026,7 hPa 0,0 l/m 0 min 0 min 0 W/m 0,0 km/h (0 Bft) 93,62 %
07.01.2020 19:20 6,9 C 6,7 C 5,6 C 91 % 1026,7 hPa 0,0 l/m 0 min 0 min 0 W/m 0,0 km/h (0 Bft) 93,62 %
07.01.2020 19:22 6,9 C 6,7 C 5,6 C 91 % 1026,7 hPa 0,0 l/m 0 min 0 min 0 W/m 0,0 km/h (0 Bft) 93,62 %
07.01.2020 19:24 6,9 C 6,7 C 5,6 C 91 % 1026,7 hPa 0,0 l/m 0 min 0 min 0 W/m 0,0 km/h (0 Bft) 95,65 %
07.01.2020 19:26 6,9 C 6,7 C 5,6 C 91 % 1026,7 hPa 0,0 l/m 0 min 0 min 0 W/m 0,0 km/h (0 Bft) 95,74 %
07.01.2020 19:28 6,9 C 6,7 C 5,6 C 91 % 1026,7 hPa 0,0 l/m 0 min 0 min 0 W/m 0,0 km/h (0 Bft) 93,62 %
07.01.2020 19:30 6,9 C 6,7 C 5,6 C 91 % 1026,7 hPa 0,0 l/m 0 min 0 min 0 W/m 12,9 km/h (3 Bft) 95,74 %
07.01.2020 19:32 6,9 C 6,7 C 5,6 C 91 % 1026,7 hPa 0,0 l/m 0 min 0 min 0 W/m 0,0 km/h (0 Bft) 95,74 %
07.01.2020 19:34 6,9 C 6,7 C 5,6 C 91 % 1026,7 hPa 0,0 l/m 0 min 0 min 0 W/m 0,0 km/h (0 Bft) 95,74 %
07.01.2020 19:36 7,0 C 6,7 C 5,6 C 90 % 1026,8 hPa 0,0 l/m 0 min 0 min 0 W/m 0,0 km/h (0 Bft) 95,65 %
07.01.2020 19:38 6,9 C 6,7 C 5,6 C 90 % 1026,8 hPa 0,0 l/m 0 min 0 min 0 W/m 0,0 km/h (0 Bft) 95,74 %
07.01.2020 19:40 6,9 C 6,7 C 5,6 C 90 % 1026,8 hPa 0,0 l/m 0 min 0 min 0 W/m 0,0 km/h (0 Bft) 93,62 %
07.01.2020 19:42 7,0 C 6,7 C 5,6 C 90 % 1026,7 hPa 0,0 l/m 0 min 0 min 0 W/m 0,0 km/h (0 Bft) 95,74 %
07.01.2020 19:44 7,0 C 6,7 C 5,6 C 90 % 1026,7 hPa 0,0 l/m 0 min 0 min 0 W/m 0,0 km/h (0 Bft) 97,87 %
07.01.2020 19:46 6,9 C 6,7 C 5,6 C 90 % 1026,6 hPa 0,0 l/m 0 min 0 min 0 W/m 0,0 km/h (0 Bft) 97,87 %
07.01.2020 19:48 7,0 C 6,1 C 5,6 C 90 % 1026,6 hPa 0,0 l/m 0 min 0 min 0 W/m 0,0 km/h (0 Bft) 97,87 %
07.01.2020 19:50 7,0 C 6,1 C 5,6 C 90 % 1026,5 hPa 0,0 l/m 0 min 0 min 0 W/m 0,0 km/h (0 Bft) 100,00 %
07.01.2020 19:52 7,0 C 6,1 C 5,6 C 90 % 1026,5 hPa 0,0 l/m 0 min 0 min 0 W/m 0,0 km/h (0 Bft) 100,00 %
07.01.2020 19:53 7,0 C 6,1 C 5,6 C 90 % 1026,5 hPa 0,0 l/m 0 min 0 min 0 W/m 3,2 km/h (1 Bft) 100,00 %
07.01.2020 19:56 6,9 C 6,1 C 5,6 C 90 % 1026,5 hPa 0,0 l/m 0 min 0 min 0 W/m 0,0 km/h (0 Bft) 100,00 %
07.01.2020 19:58 6,9 C 6,1 C 5,6 C 90 % 1026,4 hPa 0,0 l/m 0 min 0 min 0 W/m 6,4 km/h (2 Bft) 95,74 %
07.01.2020 20:00 6,9 C 6,1 C 5,6 C 90 % 1026,3 hPa 0,0 l/m 0 min 0 min 0 W/m 0,0 km/h (0 Bft) 100,00 %
07.01.2020 20:02 6,9 C 6,1 C 5,6 C 90 % 1026,3 hPa 0,0 l/m 0 min 0 min 0 W/m 3,2 km/h (1 Bft) 100,00 %
07.01.2020 20:04 6,9 C 6,1 C 5,6 C 90 % 1026,4 hPa 0,0 l/m 0 min 0 min 0 W/m 6,4 km/h (2 Bft) 100,00 %
07.01.2020 20:06 6,9 C 6,1 C 5,6 C 90 % 1026,4 hPa 0,0 l/m 0 min 0 min 0 W/m 0,0 km/h (0 Bft) 100,00 %
07.01.2020 20:08 6,9 C 6,1 C 5,6 C 90 % 1026,5 hPa 0,0 l/m 0 min 0 min 0 W/m 6,4 km/h (2 Bft) 100,00 %
07.01.2020 20:10 6,9 C 6,1 C 5,6 C 90 % 1026,4 hPa 0,0 l/m 0 min 0 min 0 W/m 3,2 km/h (1 Bft) 97,87 %
07.01.2020 20:12 6,9 C 6,1 C 5,6 C 90 % 1026,3 hPa 0,0 l/m 0 min 0 min 0 W/m 0,0 km/h (0 Bft) 100,00 %
07.01.2020 20:14 6,9 C 6,1 C 5,6 C 90 % 1026,3 hPa 0,0 l/m 0 min 0 min 0 W/m 3,2 km/h (1 Bft) 100,00 %
07.01.2020 20:16 6,9 C 6,1 C 5,6 C 89 % 1026,2 hPa 0,0 l/m 0 min 0 min 0 W/m 0,0 km/h (0 Bft) 100,00 %
07.01.2020 20:18 6,9 C 6,1 C 5,6 C 89 % 1026,2 hPa 0,0 l/m 0 min 0 min 0 W/m 0,0 km/h (0 Bft) 100,00 %
07.01.2020 20:20 6,9 C 6,1 C 5,6 C 89 % 1026,2 hPa 0,0 l/m 0 min 0 min 0 W/m 0,0 km/h (0 Bft) 100,00 %
07.01.2020 20:22 6,8 C 6,1 C 5,6 C 89 % 1026,2 hPa 0,0 l/m 0 min 0 min 0 W/m 0,0 km/h (0 Bft) 95,74 %
07.01.2020 20:24 6,8 C 6,1 C 5,6 C 89 % 1026,2 hPa 0,0 l/m 0 min 0 min 0 W/m 0,0 km/h (0 Bft) 97,83 %
07.01.2020 20:26 6,8 C 6,1 C 5,6 C 89 % 1026,1 hPa 0,0 l/m 0 min 0 min 0 W/m 0,0 km/h (0 Bft) 97,87 %
07.01.2020 20:28 6,8 C 6,1 C 5,6 C 89 % 1026,0 hPa 0,0 l/m 0 min 0 min 0 W/m 0,0 km/h (0 Bft) 97,87 %
07.01.2020 20:30 6,8 C 6,1 C 5,6 C 89 % 1026,0 hPa 0,0 l/m 0 min 0 min 0 W/m 19,3 km/h (3 Bft) 97,87 %
07.01.2020 20:32 6,8 C 6,1 C 5,6 C 89 % 1025,9 hPa 0,0 l/m 0 min 0 min 0 W/m 3,2 km/h (1 Bft) 97,87 %
07.01.2020 20:34 6,8 C 6,1 C 5,6 C 89 % 1025,9 hPa 0,0 l/m 0 min 0 min 0 W/m 0,0 km/h (0 Bft) 97,87 %
07.01.2020 20:36 6,8 C 6,1 C 5,6 C 89 % 1025,9 hPa 0,0 l/m 0 min 0 min 0 W/m 16,1 km/h (3 Bft) 97,83 %
07.01.2020 20:38 6,8 C 6,1 C 5,6 C 89 % 1025,9 hPa 0,0 l/m 0 min 0 min 0 W/m 3,2 km/h (1 Bft) 97,87 %
07.01.2020 20:40 6,8 C 6,1 C 5,6 C 89 % 1026,0 hPa 0,0 l/m 0 min 0 min 0 W/m 6,4 km/h (2 Bft) 97,87 %
07.01.2020 20:42 6,7 C 6,1 C 5,6 C 89 % 1026,0 hPa 0,0 l/m 0 min 0 min 0 W/m 0,0 km/h (0 Bft) 97,87 %
07.01.2020 20:44 6,7 C 6,1 C 5,6 C 89 % 1025,9 hPa 0,0 l/m 0 min 0 min 0 W/m 19,3 km/h (3 Bft) 97,87 %
07.01.2020 20:46 6,7 C 6,1 C 5,6 C 89 % 1025,9 hPa 0,0 l/m 0 min 0 min 0 W/m 29,0 km/h (5 Bft) 97,83 %
07.01.2020 20:48 6,7 C 6,1 C 5,6 C 89 % 1025,8 hPa 0,0 l/m 0 min 0 min 0 W/m 29,0 km/h (5 Bft) 97,87 %
07.01.2020 20:50 6,7 C 6,1 C 5,6 C 89 % 1025,8 hPa 0,0 l/m 0 min 0 min 0 W/m 0,0 km/h (0 Bft) 97,87 %
07.01.2020 20:52 6,7 C 6,1 C 5,6 C 89 % 1025,8 hPa 0,0 l/m 0 min 0 min 0 W/m 0,0 km/h (0 Bft) 97,87 %
07.01.2020 20:54 6,7 C 6,1 C 5,6 C 89 % 1025,8 hPa 0,0 l/m 0 min 0 min 0 W/m 0,0 km/h (0 Bft) 97,87 %
07.01.2020 20:56 6,7 C 6,1 C 5,6 C 89 % 1025,8 hPa 0,0 l/m 0 min 0 min 0 W/m 0,0 km/h (0 Bft) 97,87 %
07.01.2020 20:58 6,7 C 6,1 C 5,0 C 89 % 1025,8 hPa 0,0 l/m 0 min 0 min 0 W/m 0,0 km/h (0 Bft) 97,83 %
07.01.2020 21:00 6,7 C 6,1 C 5,0 C 89 % 1025,8 hPa 0,0 l/m 0 min 0 min 0 W/m 0,0 km/h (0 Bft) 95,74 %
07.01.2020 21:02 6,7 C 5,6 C 5,0 C 89 % 1025,8 hPa 0,0 l/m 0 min 0 min 0 W/m 0,0 km/h (0 Bft) 97,87 %
07.01.2020 21:04 6,6 C 5,6 C 5,0 C 89 % 1025,7 hPa 0,0 l/m 0 min 0 min 0 W/m 16,1 km/h (3 Bft) 97,87 %
07.01.2020 21:06 6,6 C 6,1 C 5,0 C 89 % 1025,7 hPa 0,0 l/m 0 min 0 min 0 W/m 16,1 km/h (3 Bft) 97,87 %
07.01.2020 21:08 6,6 C 5,6 C 5,0 C 89 % 1025,6 hPa 0,0 l/m 0 min 0 min 0 W/m 9,7 km/h (2 Bft) 97,87 %
07.01.2020 21:10 6,6 C 5,6 C 5,0 C 89 % 1025,6 hPa 0,0 l/m 0 min 0 min 0 W/m 16,1 km/h (3 Bft) 97,83 %
07.01.2020 21:12 6,6 C 6,1 C 5,0 C 89 % 1025,6 hPa 0,0 l/m 0 min 0 min 0 W/m 3,2 km/h (1 Bft) 97,87 %
07.01.2020 21:14 6,6 C 5,6 C 5,0 C 89 % 1025,7 hPa 0,0 l/m 0 min 0 min 0 W/m 0,0 km/h (0 Bft) 97,87 %
07.01.2020 21:16 6,6 C 5,6 C 5,0 C 89 % 1025,7 hPa 0,0 l/m 0 min 0 min 0 W/m 6,4 km/h (2 Bft) 97,87 %
07.01.2020 21:18 6,6 C 6,1 C 5,0 C 89 % 1025,7 hPa 0,0 l/m 0 min 0 min 0 W/m 0,0 km/h (0 Bft) 97,87 %
07.01.2020 21:20 6,6 C 6,1 C 5,0 C 89 % 1025,7 hPa 0,0 l/m 0 min 0 min 0 W/m 3,2 km/h (1 Bft) 100,00 %
07.01.2020 21:22 6,5 C 6,1 C 5,0 C 89 % 1025,7 hPa 0,0 l/m 0 min 0 min 0 W/m 6,4 km/h (2 Bft) 97,83 %
07.01.2020 21:24 6,5 C 6,1 C 5,0 C 89 % 1025,6 hPa 0,0 l/m 0 min 0 min 0 W/m 22,5 km/h (4 Bft) 100,00 %
07.01.2020 21:26 6,5 C 5,6 C 5,0 C 89 % 1025,6 hPa 0,0 l/m 0 min 0 min 0 W/m 3,2 km/h (1 Bft) 97,87 %
07.01.2020 21:28 6,5 C 6,1 C 5,0 C 89 % 1025,6 hPa 0,0 l/m 0 min 0 min 0 W/m 6,4 km/h (2 Bft) 97,87 %
07.01.2020 21:30 6,5 C 6,1 C 5,0 C 89 % 1025,6 hPa 0,0 l/m 0 min 0 min 0 W/m 3,2 km/h (1 Bft) 97,87 %
07.01.2020 21:32 6,5 C 6,1 C 5,0 C 89 % 1025,8 hPa 0,0 l/m 0 min 0 min 0 W/m 0,0 km/h (0 Bft) 97,87 %
07.01.2020 21:34 6,5 C 6,1 C 5,0 C 89 % 1025,8 hPa 0,0 l/m 0 min 0 min 0 W/m 0,0 km/h (0 Bft) 97,83 %
07.01.2020 21:36 6,5 C 6,1 C 5,0 C 89 % 1025,8 hPa 0,0 l/m 0 min 0 min 0 W/m 0,0 km/h (0 Bft) 100,00 %
07.01.2020 21:38 6,5 C 6,1 C 5,0 C 89 % 1025,8 hPa 0,0 l/m 0 min 0 min 0 W/m 0,0 km/h (0 Bft) 95,74 %
07.01.2020 21:40 6,5 C 6,1 C 5,0 C 89 % 1025,8 hPa 0,0 l/m 0 min 0 min 0 W/m 0,0 km/h (0 Bft) 95,74 %
07.01.2020 21:42 6,5 C 6,1 C 5,0 C 89 % 1025,9 hPa 0,0 l/m 0 min 0 min 0 W/m 0,0 km/h (0 Bft) 93,62 %
07.01.2020 21:44 6,5 C 6,1 C 5,0 C 89 % 1025,9 hPa 0,0 l/m 0 min 0 min 0 W/m 0,0 km/h (0 Bft) 95,74 %
07.01.2020 21:46 6,5 C 6,1 C 5,0 C 89 % 1025,9 hPa 0,0 l/m 0 min 0 min 0 W/m 0,0 km/h (0 Bft) 97,83 %
07.01.2020 21:48 6,5 C 6,1 C 5,0 C 89 % 1025,9 hPa 0,0 l/m 0 min 0 min 0 W/m 0,0 km/h (0 Bft) 95,74 %
07.01.2020 21:50 6,5 C 6,1 C 5,0 C 89 % 1025,9 hPa 0,0 l/m 0 min 0 min 0 W/m 0,0 km/h (0 Bft) 95,74 %
07.01.2020 21:52 6,5 C 6,1 C 5,0 C 89 % 1025,9 hPa 0,0 l/m 0 min 0 min 0 W/m 0,0 km/h (0 Bft) 95,74 %
07.01.2020 21:54 6,5 C 6,1 C 5,0 C 89 % 1025,9 hPa 0,0 l/m 0 min 0 min 0 W/m 0,0 km/h (0 Bft) 93,62 %
07.01.2020 21:56 6,5 C 6,1 C 5,0 C 89 % 1025,9 hPa 0,0 l/m 0 min 0 min 0 W/m 0,0 km/h (0 Bft) 95,65 %
07.01.2020 21:58 6,5 C 6,1 C 5,0 C 89 % 1025,9 hPa 0,0 l/m 0 min 0 min 0 W/m 0,0 km/h (0 Bft) 93,62 %
07.01.2020 22:00 6,5 C 6,1 C 5,0 C 89 % 1025,9 hPa 0,0 l/m 0 min 0 min 0 W/m 0,0 km/h (0 Bft) 95,74 %
07.01.2020 22:02 6,5 C 6,1 C 5,0 C 89 % 1025,9 hPa 0,0 l/m 0 min 0 min 0 W/m 0,0 km/h (0 Bft) 97,87 %
07.01.2020 22:04 6,5 C 6,1 C 5,0 C 89 % 1026,0 hPa 0,0 l/m 0 min 0 min 0 W/m 0,0 km/h (0 Bft) 93,62 %
07.01.2020 22:06 6,5 C 6,1 C 5,0 C 89 % 1026,0 hPa 0,0 l/m 0 min 0 min 0 W/m 0,0 km/h (0 Bft) 95,74 %
07.01.2020 22:08 6,5 C 6,1 C 5,0 C 89 % 1025,9 hPa 0,0 l/m 0 min 0 min 0 W/m 0,0 km/h (0 Bft) 95,65 %
07.01.2020 22:10 6,5 C 6,1 C 5,0 C 88 % 1025,9 hPa 0,0 l/m 0 min 0 min 0 W/m 0,0 km/h (0 Bft) 95,74 %
07.01.2020 22:12 6,5 C 6,1 C 5,0 C 88 % 1025,9 hPa 0,0 l/m 0 min 0 min 0 W/m 0,0 km/h (0 Bft) 95,74 %
07.01.2020 22:14 6,5 C 6,1 C 5,0 C 88 % 1026,0 hPa 0,0 l/m 0 min 0 min 0 W/m 3,2 km/h (1 Bft) 95,74 %
07.01.2020 22:16 6,5 C 6,1 C 5,0 C 88 % 1026,0 hPa 0,0 l/m 0 min 0 min 0 W/m 0,0 km/h (0 Bft) 93,62 %
07.01.2020 22:18 6,5 C 6,1 C 5,0 C 88 % 1025,9 hPa 0,0 l/m 0 min 0 min 0 W/m 0,0 km/h (0 Bft) 93,62 %
07.01.2020 22:20 6,5 C 6,1 C 5,0 C 88 % 1025,9 hPa 0,0 l/m 0 min 0 min 0 W/m 3,2 km/h (1 Bft) 95,65 %
07.01.2020 22:22 6,5 C 6,1 C 5,0 C 88 % 1026,0 hPa 0,0 l/m 0 min 0 min 0 W/m 0,0 km/h (0 Bft) 95,74 %
07.01.2020 22:24 6,5 C 6,1 C 5,6 C 88 % 1026,0 hPa 0,0 l/m 0 min 0 min 0 W/m 0,0 km/h (0 Bft) 97,87 %
07.01.2020 22:26 6,5 C 6,1 C 5,0 C 88 % 1026,1 hPa 0,0 l/m 0 min 0 min 0 W/m 0,0 km/h (0 Bft) 97,87 %
07.01.2020 22:28 6,5 C 6,1 C 5,0 C 88 % 1026,1 hPa 0,0 l/m 0 min 0 min 0 W/m 0,0 km/h (0 Bft) 100,00 %
07.01.2020 22:30 6,5 C 6,1 C 5,0 C 88 % 1026,1 hPa 0,0 l/m 0 min 0 min 0 W/m 0,0 km/h (0 Bft) 97,87 %
07.01.2020 22:32 6,5 C 5,6 C 5,0 C 88 % 1026,1 hPa 0,0 l/m 0 min 0 min 0 W/m 0,0 km/h (0 Bft) 100,00 %
07.01.2020 22:34 6,5 C 5,6 C 5,0 C 88 % 1026,1 hPa 0,0 l/m 0 min 0 min 0 W/m 0,0 km/h (0 Bft) 100,00 %
07.01.2020 22:36 6,5 C 5,6 C 5,0 C 88 % 1026,1 hPa 0,0 l/m 0 min 0 min 0 W/m 0,0 km/h (0 Bft) 100,00 %
07.01.2020 22:38 6,5 C 5,6 C 5,0 C 88 % 1026,1 hPa 0,0 l/m 0 min 0 min 0 W/m 0,0 km/h (0 Bft) 97,87 %
07.01.2020 22:40 6,5 C 5,6 C 5,0 C 88 % 1026,1 hPa 0,0 l/m 0 min 0 min 0 W/m 0,0 km/h (0 Bft) 100,00 %
07.01.2020 22:42 6,4 C 5,6 C 5,0 C 88 % 1026,2 hPa 0,0 l/m 0 min 0 min 0 W/m 0,0 km/h (0 Bft) 100,00 %
07.01.2020 22:44 6,4 C 5,6 C 5,0 C 88 % 1026,1 hPa 0,0 l/m 0 min 0 min 0 W/m 0,0 km/h (0 Bft) 100,00 %
07.01.2020 22:46 6,4 C 5,6 C 5,0 C 88 % 1026,1 hPa 0,0 l/m 0 min 0 min 0 W/m 0,0 km/h (0 Bft) 100,00 %
07.01.2020 22:48 6,4 C 5,6 C 4,4 C 88 % 1026,1 hPa 0,0 l/m 0 min 0 min 0 W/m 0,0 km/h (0 Bft) 100,00 %
07.01.2020 22:50 6,4 C 5,6 C 4,4 C 88 % 1026,1 hPa 0,0 l/m 0 min 0 min 0 W/m 0,0 km/h (0 Bft) 100,00 %
07.01.2020 22:52 6,4 C 5,6 C 4,4 C 88 % 1026,1 hPa 0,0 l/m 0 min 0 min 0 W/m 0,0 km/h (0 Bft) 100,00 %
07.01.2020 22:54 6,3 C 5,6 C 4,4 C 88 % 1026,1 hPa 0,0 l/m 0 min 0 min 0 W/m 0,0 km/h (0 Bft) 100,00 %
07.01.2020 22:56 6,3 C 5,6 C 4,4 C 88 % 1026,1 hPa 0,0 l/m 0 min 0 min 0 W/m 0,0 km/h (0 Bft) 97,87 %
07.01.2020 22:58 6,3 C 5,6 C 4,4 C 88 % 1026,0 hPa 0,0 l/m 0 min 0 min 0 W/m 0,0 km/h (0 Bft) 100,00 %
07.01.2020 23:00 6,3 C 5,6 C 4,4 C 88 % 1026,0 hPa 0,0 l/m 0 min 0 min 0 W/m 0,0 km/h (0 Bft) 100,00 %
07.01.2020 23:02 6,3 C 5,6 C 4,4 C 88 % 1026,0 hPa 0,0 l/m 0 min 0 min 0 W/m 0,0 km/h (0 Bft) 100,00 %
07.01.2020 23:04 6,2 C 5,0 C 4,4 C 88 % 1025,9 hPa 0,0 l/m 0 min 0 min 0 W/m 0,0 km/h (0 Bft) 97,87 %
07.01.2020 23:06 6,2 C 5,6 C 4,4 C 88 % 1025,9 hPa 0,0 l/m 0 min 0 min 0 W/m 0,0 km/h (0 Bft) 100,00 %
07.01.2020 23:08 6,2 C 5,6 C 4,4 C 88 % 1025,9 hPa 0,0 l/m 0 min 0 min 0 W/m 0,0 km/h (0 Bft) 100,00 %
07.01.2020 23:10 6,2 C 5,6 C 4,4 C 88 % 1025,9 hPa 0,0 l/m 0 min 0 min 0 W/m 0,0 km/h (0 Bft) 100,00 %
07.01.2020 23:12 6,2 C 5,6 C 4,4 C 88 % 1025,8 hPa 0,0 l/m 0 min 0 min 0 W/m 0,0 km/h (0 Bft) 97,87 %
07.01.2020 23:14 6,1 C 5,0 C 4,4 C 88 % 1025,8 hPa 0,0 l/m 0 min 0 min 0 W/m 3,2 km/h (1 Bft) 97,87 %
07.01.2020 23:16 6,1 C 5,0 C 4,4 C 88 % 1025,9 hPa 0,0 l/m 0 min 0 min 0 W/m 0,0 km/h (0 Bft) 100,00 %
07.01.2020 23:18 6,1 C 5,0 C 4,4 C 88 % 1026,0 hPa 0,0 l/m 0 min 0 min 0 W/m 0,0 km/h (0 Bft) 100,00 %
07.01.2020 23:20 6,1 C 5,0 C 4,4 C 88 % 1026,1 hPa 0,0 l/m 0 min 0 min 0 W/m 0,0 km/h (0 Bft) 100,00 %
07.01.2020 23:22 6,1 C 5,6 C 4,4 C 89 % 1026,0 hPa 0,0 l/m 0 min 0 min 0 W/m 0,0 km/h (0 Bft) 100,00 %
07.01.2020 23:24 6,1 C 5,6 C 4,4 C 89 % 1026,0 hPa 0,0 l/m 0 min 0 min 0 W/m 0,0 km/h (0 Bft) 100,00 %
07.01.2020 23:26 6,1 C 5,6 C 4,4 C 89 % 1025,9 hPa 0,0 l/m 0 min 0 min 0 W/m 0,0 km/h (0 Bft) 100,00 %
07.01.2020 23:28 6,1 C 5,6 C 4,4 C 89 % 1025,9 hPa 0,0 l/m 0 min 0 min 0 W/m 0,0 km/h (0 Bft) 100,00 %
07.01.2020 23:30 6,1 C 5,6 C 5,0 C 89 % 1025,8 hPa 0,0 l/m 0 min 0 min 0 W/m 0,0 km/h (0 Bft) 100,00 %
07.01.2020 23:32 6,1 C 5,6 C 5,0 C 89 % 1025,8 hPa 0,0 l/m 0 min 0 min 0 W/m 0,0 km/h (0 Bft) 97,87 %
07.01.2020 23:34 6,1 C 5,6 C 5,0 C 89 % 1025,8 hPa 0,0 l/m 0 min 0 min 0 W/m 0,0 km/h (0 Bft) 100,00 %
07.01.2020 23:36 6,1 C 5,6 C 5,0 C 89 % 1025,9 hPa 0,0 l/m 0 min 0 min 0 W/m 0,0 km/h (0 Bft) 100,00 %
07.01.2020 23:38 6,1 C 5,6 C 5,0 C 89 % 1025,8 hPa 0,0 l/m 0 min 0 min 0 W/m 3,2 km/h (1 Bft) 97,87 %
07.01.2020 23:40 6,1 C 5,6 C 5,0 C 89 % 1025,8 hPa 0,0 l/m 0 min 0 min 0 W/m 0,0 km/h (0 Bft) 100,00 %
07.01.2020 23:42 6,1 C 5,6 C 5,0 C 89 % 1025,9 hPa 0,0 l/m 0 min 0 min 0 W/m 0,0 km/h (0 Bft) 100,00 %
07.01.2020 23:44 6,1 C 5,6 C 5,0 C 89 % 1025,9 hPa 0,0 l/m 0 min 0 min 0 W/m 0,0 km/h (0 Bft) 100,00 %
07.01.2020 23:46 6,1 C 5,6 C 5,0 C 89 % 1025,9 hPa 0,0 l/m 0 min 0 min 0 W/m 0,0 km/h (0 Bft) 100,00 %
07.01.2020 23:48 6,1 C 5,6 C 5,0 C 89 % 1025,8 hPa 0,0 l/m 0 min 0 min 0 W/m 0,0 km/h (0 Bft) 100,00 %
07.01.2020 23:50 6,1 C 5,6 C 5,0 C 89 % 1025,9 hPa 0,0 l/m 0 min 0 min 0 W/m 0,0 km/h (0 Bft) 97,87 %
07.01.2020 23:52 6,1 C 5,6 C 5,0 C 89 % 1025,9 hPa 0,0 l/m 0 min 0 min 0 W/m 3,2 km/h (1 Bft) 95,65 %
07.01.2020 23:54 6,1 C 5,6 C 5,0 C 89 % 1025,8 hPa 0,0 l/m 0 min 0 min 0 W/m 0,0 km/h (0 Bft) 97,87 %
07.01.2020 23:56 6,1 C 5,6 C 5,0 C 89 % 1025,8 hPa 0,0 l/m 0 min 0 min 0 W/m 0,0 km/h (0 Bft) 97,87 %
07.01.2020 23:58 6,1 C 5,6 C 5,0 C 89 % 1025,8 hPa 0,0 l/m 0 min 0 min 0 W/m 0,0 km/h (0 Bft) 97,87 %
_ Min-Zeit 00:00 01:46 01:52 00:14 00:00 - - - - 00:00 01:04
Minimum _ 4,2 C 3,3 C 2,8 C 88 % 1022,0 hPa - - - - 0,0 km/h (0 Bft) 51,16 %
_ Max-Zeit 15:50 15:00 14:14 05:38 11:48 02:06 14:56 01:04 12:12 11:32 01:24
Maximum _ 8,8 C 8,9 C 7,8 C 99 % 1028,3 hPa 0,2 l/m 2 min 2 min 126 W/m 29,0 km/h
SO (5 Bft)
100,00 %
Durchschnitt _ 6,6 C 6,0 C 5,3 C 94 % 1026,0 hPa #1,2 l/m #32 min. #52 min. 52 W/m 2,9 km/h (1 Bft) 97,24 %
© 2020 W. Hausmann